<?xml version="1.0" encoding="UTF-8" standalone="no" ?>
<gpx xmlns="http://www.topografix.com/GPX/1/1" xmlns:xsi="http://www.w3.org/2001/XMLSchema-instance" xsi:schemaLocation="http://www.topografix.com/GPX/1/1 http://www.topografix.com/GPX/1/1/gpx.xsd" version="1.1" creator="VisuGPX - https://www.visugpx.com">
  <metadata>
    <name>le-chemin-de-tiberet</name>
    <desc><![CDATA[#fait]]></desc>
  </metadata>
  <wpt lat="43.56001" lon="3.32942">
    <ele>232.1</ele>
    <name><![CDATA[RUINES]]></name>
    <extensions>
      <visugpx:TrackPointExtension xmlns:visugpx="https://www.visugpx.com/editgpx/">
        <visugpx:dec>0,0</visugpx:dec>
      </visugpx:TrackPointExtension>
    </extensions>
  </wpt>
  <trk>
    <name><![CDATA[Le Chemin de Tibéret]]></name>
    <extensions>
      <line xmlns="http://www.topografix.com/GPX/gpx_style/0/2">
        <color>0000FF</color>
        <width>4</width>
      </line>
    </extensions>
    <trkseg>
      <trkpt lat="43.57691" lon="3.32235">
        <ele>267</ele>
        <time>2016-01-11T10:02:13.000Z</time>
      </trkpt>
      <trkpt lat="43.57692" lon="3.32207">
        <ele>267.5</ele>
        <time>2016-01-11T10:02:16.858Z</time>
      </trkpt>
      <trkpt lat="43.5769" lon="3.32201">
        <ele>267.8</ele>
        <time>2016-01-11T10:02:17.707Z</time>
      </trkpt>
      <trkpt lat="43.57684" lon="3.32189">
        <ele>268.5</ele>
        <time>2016-01-11T10:02:19.743Z</time>
      </trkpt>
      <trkpt lat="43.57683" lon="3.32187">
        <ele>268.5</ele>
        <time>2016-01-11T10:02:20.119Z</time>
      </trkpt>
      <trkpt lat="43.57676" lon="3.32196">
        <ele>267.8</ele>
        <time>2016-01-11T10:02:21.909Z</time>
      </trkpt>
      <trkpt lat="43.57675" lon="3.32197">
        <ele>267.8</ele>
        <time>2016-01-11T10:02:22.043Z</time>
      </trkpt>
      <trkpt lat="43.57665" lon="3.32201">
        <ele>267.5</ele>
        <time>2016-01-11T10:02:23.313Z</time>
      </trkpt>
      <trkpt lat="43.57645" lon="3.32202">
        <ele>269.8</ele>
        <time>2016-01-11T10:02:25.699Z</time>
      </trkpt>
      <trkpt lat="43.57622" lon="3.32202">
        <ele>272.8</ele>
        <time>2016-01-11T10:02:28.468Z</time>
      </trkpt>
      <trkpt lat="43.57604" lon="3.32197">
        <ele>276</ele>
        <time>2016-01-11T10:02:30.744Z</time>
      </trkpt>
      <trkpt lat="43.57595" lon="3.32192">
        <ele>278.5</ele>
        <time>2016-01-11T10:02:31.968Z</time>
      </trkpt>
      <trkpt lat="43.57594" lon="3.32192">
        <ele>279.5</ele>
        <time>2016-01-11T10:02:32.028Z</time>
      </trkpt>
      <trkpt lat="43.57588" lon="3.32192">
        <ele>279.5</ele>
        <time>2016-01-11T10:02:32.789Z</time>
      </trkpt>
      <trkpt lat="43.57579" lon="3.32183">
        <ele>282.8</ele>
        <time>2016-01-11T10:02:35.667Z</time>
      </trkpt>
      <trkpt lat="43.57572" lon="3.32166">
        <ele>287.3</ele>
        <time>2016-01-11T10:02:39.358Z</time>
      </trkpt>
      <trkpt lat="43.57567" lon="3.32155">
        <ele>289.3</ele>
        <time>2016-01-11T10:02:41.789Z</time>
      </trkpt>
      <trkpt lat="43.57562" lon="3.32154">
        <ele>290.3</ele>
        <time>2016-01-11T10:02:43.261Z</time>
      </trkpt>
      <trkpt lat="43.5756" lon="3.32154">
        <ele>290.3</ele>
        <time>2016-01-11T10:02:43.707Z</time>
      </trkpt>
      <trkpt lat="43.57553" lon="3.32165">
        <ele>289.8</ele>
        <time>2016-01-11T10:02:46.372Z</time>
      </trkpt>
      <trkpt lat="43.57545" lon="3.32181">
        <ele>286.8</ele>
        <time>2016-01-11T10:02:50.012Z</time>
      </trkpt>
      <trkpt lat="43.57543" lon="3.32185">
        <ele>286.8</ele>
        <time>2016-01-11T10:02:50.965Z</time>
      </trkpt>
      <trkpt lat="43.57514" lon="3.32215">
        <ele>284.5</ele>
        <time>2016-01-11T10:02:56.619Z</time>
      </trkpt>
      <trkpt lat="43.57513" lon="3.32216">
        <ele>284.8</ele>
        <time>2016-01-11T10:02:56.791Z</time>
      </trkpt>
      <trkpt lat="43.57496" lon="3.32229">
        <ele>284.8</ele>
        <time>2016-01-11T10:02:59.832Z</time>
      </trkpt>
      <trkpt lat="43.57476" lon="3.32235">
        <ele>287.8</ele>
        <time>2016-01-11T10:03:02.935Z</time>
      </trkpt>
      <trkpt lat="43.57467" lon="3.32238">
        <ele>287.8</ele>
        <time>2016-01-11T10:03:04.340Z</time>
      </trkpt>
      <trkpt lat="43.57465" lon="3.32235">
        <ele>288.8</ele>
        <time>2016-01-11T10:03:04.882Z</time>
      </trkpt>
      <trkpt lat="43.57465" lon="3.32232">
        <ele>289.8</ele>
        <time>2016-01-11T10:03:05.173Z</time>
      </trkpt>
      <trkpt lat="43.57466" lon="3.3223">
        <ele>289.8</ele>
        <time>2016-01-11T10:03:05.400Z</time>
      </trkpt>
      <trkpt lat="43.57468" lon="3.32228">
        <ele>290</ele>
        <time>2016-01-11T10:03:05.864Z</time>
      </trkpt>
      <trkpt lat="43.57478" lon="3.32223">
        <ele>288.5</ele>
        <time>2016-01-11T10:03:07.629Z</time>
      </trkpt>
      <trkpt lat="43.57485" lon="3.3222">
        <ele>288.5</ele>
        <time>2016-01-11T10:03:08.719Z</time>
      </trkpt>
      <trkpt lat="43.57502" lon="3.32192">
        <ele>290.8</ele>
        <time>2016-01-11T10:03:12.392Z</time>
      </trkpt>
      <trkpt lat="43.57499" lon="3.32193">
        <ele>295.3</ele>
        <time>2016-01-11T10:03:12.850Z</time>
      </trkpt>
      <trkpt lat="43.57469" lon="3.32203">
        <ele>295.3</ele>
        <time>2016-01-11T10:03:17.108Z</time>
      </trkpt>
      <trkpt lat="43.5745" lon="3.32213">
        <ele>296.8</ele>
        <time>2016-01-11T10:03:19.903Z</time>
      </trkpt>
      <trkpt lat="43.57447" lon="3.32215">
        <ele>296.8</ele>
        <time>2016-01-11T10:03:20.448Z</time>
      </trkpt>
      <trkpt lat="43.57422" lon="3.3222">
        <ele>300.8</ele>
        <time>2016-01-11T10:03:23.393Z</time>
      </trkpt>
      <trkpt lat="43.57419" lon="3.3222">
        <ele>300.8</ele>
        <time>2016-01-11T10:03:23.733Z</time>
      </trkpt>
      <trkpt lat="43.57395" lon="3.32213">
        <ele>302.5</ele>
        <time>2016-01-11T10:03:28.128Z</time>
      </trkpt>
      <trkpt lat="43.57368" lon="3.32224">
        <ele>299.5</ele>
        <time>2016-01-11T10:03:33.261Z</time>
      </trkpt>
      <trkpt lat="43.57363" lon="3.32223">
        <ele>299.8</ele>
        <time>2016-01-11T10:03:34.157Z</time>
      </trkpt>
      <trkpt lat="43.5735" lon="3.3222">
        <ele>300.3</ele>
        <time>2016-01-11T10:03:36.473Z</time>
      </trkpt>
      <trkpt lat="43.5734" lon="3.3222">
        <ele>300</ele>
        <time>2016-01-11T10:03:38.432Z</time>
      </trkpt>
      <trkpt lat="43.57331" lon="3.32221">
        <ele>298.5</ele>
        <time>2016-01-11T10:03:39.943Z</time>
      </trkpt>
      <trkpt lat="43.57326" lon="3.32222">
        <ele>298.5</ele>
        <time>2016-01-11T10:03:40.835Z</time>
      </trkpt>
      <trkpt lat="43.57282" lon="3.3222">
        <ele>291</ele>
        <time>2016-01-11T10:03:48.963Z</time>
      </trkpt>
      <trkpt lat="43.57281" lon="3.3222">
        <ele>291</ele>
        <time>2016-01-11T10:03:49.162Z</time>
      </trkpt>
      <trkpt lat="43.57269" lon="3.3221">
        <ele>289.8</ele>
        <time>2016-01-11T10:03:52.017Z</time>
      </trkpt>
      <trkpt lat="43.57264" lon="3.32191">
        <ele>290</ele>
        <time>2016-01-11T10:03:55.203Z</time>
      </trkpt>
      <trkpt lat="43.57262" lon="3.32183">
        <ele>290</ele>
        <time>2016-01-11T10:03:56.375Z</time>
      </trkpt>
      <trkpt lat="43.57248" lon="3.32199">
        <ele>286.3</ele>
        <time>2016-01-11T10:04:00.126Z</time>
      </trkpt>
      <trkpt lat="43.57246" lon="3.32173">
        <ele>286.5</ele>
        <time>2016-01-11T10:04:04.158Z</time>
      </trkpt>
      <trkpt lat="43.57246" lon="3.32172">
        <ele>286.8</ele>
        <time>2016-01-11T10:04:04.270Z</time>
      </trkpt>
      <trkpt lat="43.57224" lon="3.32208">
        <ele>281.3</ele>
        <time>2016-01-11T10:04:10.181Z</time>
      </trkpt>
      <trkpt lat="43.57199" lon="3.3223">
        <ele>276.3</ele>
        <time>2016-01-11T10:04:15.327Z</time>
      </trkpt>
      <trkpt lat="43.57194" lon="3.32232">
        <ele>273.5</ele>
        <time>2016-01-11T10:04:16.242Z</time>
      </trkpt>
      <trkpt lat="43.57183" lon="3.32236">
        <ele>273.5</ele>
        <time>2016-01-11T10:04:18.132Z</time>
      </trkpt>
      <trkpt lat="43.57178" lon="3.32238">
        <ele>272.5</ele>
        <time>2016-01-11T10:04:19.054Z</time>
      </trkpt>
      <trkpt lat="43.57169" lon="3.32279">
        <ele>267.5</ele>
        <time>2016-01-11T10:04:24.376Z</time>
      </trkpt>
      <trkpt lat="43.57169" lon="3.32278">
        <ele>267</ele>
        <time>2016-01-11T10:04:24.498Z</time>
      </trkpt>
      <trkpt lat="43.57155" lon="3.3226">
        <ele>267</ele>
        <time>2016-01-11T10:04:27.783Z</time>
      </trkpt>
      <trkpt lat="43.57145" lon="3.32267">
        <ele>264.3</ele>
        <time>2016-01-11T10:04:30.140Z</time>
      </trkpt>
      <trkpt lat="43.57139" lon="3.32284">
        <ele>261.8</ele>
        <time>2016-01-11T10:04:32.843Z</time>
      </trkpt>
      <trkpt lat="43.57126" lon="3.32268">
        <ele>260.5</ele>
        <time>2016-01-11T10:04:36.436Z</time>
      </trkpt>
      <trkpt lat="43.57121" lon="3.32276">
        <ele>257.8</ele>
        <time>2016-01-11T10:04:38.018Z</time>
      </trkpt>
      <trkpt lat="43.57117" lon="3.32284">
        <ele>257.8</ele>
        <time>2016-01-11T10:04:39.479Z</time>
      </trkpt>
      <trkpt lat="43.57119" lon="3.32304">
        <ele>257</ele>
        <time>2016-01-11T10:04:42.443Z</time>
      </trkpt>
      <trkpt lat="43.57113" lon="3.32299">
        <ele>254.5</ele>
        <time>2016-01-11T10:04:43.946Z</time>
      </trkpt>
      <trkpt lat="43.57099" lon="3.32289">
        <ele>254.5</ele>
        <time>2016-01-11T10:04:47.121Z</time>
      </trkpt>
      <trkpt lat="43.57092" lon="3.32294">
        <ele>253.3</ele>
        <time>2016-01-11T10:04:48.569Z</time>
      </trkpt>
      <trkpt lat="43.57082" lon="3.32293">
        <ele>251.8</ele>
        <time>2016-01-11T10:04:50.516Z</time>
      </trkpt>
      <trkpt lat="43.57075" lon="3.32296">
        <ele>248.3</ele>
        <time>2016-01-11T10:04:51.812Z</time>
      </trkpt>
      <trkpt lat="43.57055" lon="3.32306">
        <ele>248.3</ele>
        <time>2016-01-11T10:04:55.798Z</time>
      </trkpt>
      <trkpt lat="43.57033" lon="3.32334">
        <ele>245.8</ele>
        <time>2016-01-11T10:05:01.308Z</time>
      </trkpt>
      <trkpt lat="43.5703" lon="3.32335">
        <ele>241.5</ele>
        <time>2016-01-11T10:05:01.892Z</time>
      </trkpt>
      <trkpt lat="43.57007" lon="3.32342">
        <ele>241.5</ele>
        <time>2016-01-11T10:05:06.303Z</time>
      </trkpt>
      <trkpt lat="43.56993" lon="3.32329">
        <ele>240.5</ele>
        <time>2016-01-11T10:05:09.607Z</time>
      </trkpt>
      <trkpt lat="43.56975" lon="3.32339">
        <ele>236.8</ele>
        <time>2016-01-11T10:05:13.542Z</time>
      </trkpt>
      <trkpt lat="43.56968" lon="3.32344">
        <ele>233</ele>
        <time>2016-01-11T10:05:15.050Z</time>
      </trkpt>
      <trkpt lat="43.56958" lon="3.32352">
        <ele>233</ele>
        <time>2016-01-11T10:05:17.343Z</time>
      </trkpt>
      <trkpt lat="43.56939" lon="3.32375">
        <ele>228.5</ele>
        <time>2016-01-11T10:05:20.781Z</time>
      </trkpt>
      <trkpt lat="43.5693" lon="3.32377">
        <ele>227.3</ele>
        <time>2016-01-11T10:05:21.920Z</time>
      </trkpt>
      <trkpt lat="43.56916" lon="3.32395">
        <ele>224.5</ele>
        <time>2016-01-11T10:05:24.600Z</time>
      </trkpt>
      <trkpt lat="43.56886" lon="3.32412">
        <ele>221</ele>
        <time>2016-01-11T10:05:28.918Z</time>
      </trkpt>
      <trkpt lat="43.56874" lon="3.32424">
        <ele>218.8</ele>
        <time>2016-01-11T10:05:30.879Z</time>
      </trkpt>
      <trkpt lat="43.56876" lon="3.32421">
        <ele>221</ele>
        <time>2016-01-11T10:05:31.336Z</time>
      </trkpt>
      <trkpt lat="43.56874" lon="3.32424">
        <ele>218.8</ele>
        <time>2016-01-11T10:05:31.793Z</time>
      </trkpt>
      <trkpt lat="43.5685" lon="3.3241">
        <ele>217.8</ele>
        <time>2016-01-11T10:05:35.212Z</time>
      </trkpt>
      <trkpt lat="43.56807" lon="3.32374">
        <ele>215.3</ele>
        <time>2016-01-11T10:05:41.699Z</time>
      </trkpt>
      <trkpt lat="43.56791" lon="3.32361">
        <ele>215.3</ele>
        <time>2016-01-11T10:05:44.210Z</time>
      </trkpt>
      <trkpt lat="43.56769" lon="3.32351">
        <ele>213.3</ele>
        <time>2016-01-11T10:05:47.166Z</time>
      </trkpt>
      <trkpt lat="43.56743" lon="3.32341">
        <ele>210.3</ele>
        <time>2016-01-11T10:05:50.799Z</time>
      </trkpt>
      <trkpt lat="43.56731" lon="3.32338">
        <ele>204</ele>
        <time>2016-01-11T10:05:52.355Z</time>
      </trkpt>
      <trkpt lat="43.56676" lon="3.32322">
        <ele>204</ele>
        <time>2016-01-11T10:05:59.710Z</time>
      </trkpt>
      <trkpt lat="43.56653" lon="3.32321">
        <ele>202.8</ele>
        <time>2016-01-11T10:06:02.082Z</time>
      </trkpt>
      <trkpt lat="43.56629" lon="3.32328">
        <ele>201.5</ele>
        <time>2016-01-11T10:06:04.594Z</time>
      </trkpt>
      <trkpt lat="43.56601" lon="3.32329">
        <ele>200.3</ele>
        <time>2016-01-11T10:06:07.381Z</time>
      </trkpt>
      <trkpt lat="43.56566" lon="3.32345">
        <ele>199.5</ele>
        <time>2016-01-11T10:06:11.184Z</time>
      </trkpt>
      <trkpt lat="43.56543" lon="3.32339">
        <ele>198</ele>
        <time>2016-01-11T10:06:13.472Z</time>
      </trkpt>
      <trkpt lat="43.56518" lon="3.32346">
        <ele>197.3</ele>
        <time>2016-01-11T10:06:16.084Z</time>
      </trkpt>
      <trkpt lat="43.56505" lon="3.32334">
        <ele>196</ele>
        <time>2016-01-11T10:06:17.672Z</time>
      </trkpt>
      <trkpt lat="43.56499" lon="3.32333">
        <ele>195.3</ele>
        <time>2016-01-11T10:06:18.264Z</time>
      </trkpt>
      <trkpt lat="43.56478" lon="3.32329">
        <ele>195.3</ele>
        <time>2016-01-11T10:06:20.416Z</time>
      </trkpt>
      <trkpt lat="43.56477" lon="3.32329">
        <ele>194.5</ele>
        <time>2016-01-11T10:06:20.588Z</time>
      </trkpt>
      <trkpt lat="43.56464" lon="3.32329">
        <ele>194.5</ele>
        <time>2016-01-11T10:06:21.835Z</time>
      </trkpt>
      <trkpt lat="43.56458" lon="3.3233">
        <ele>191.5</ele>
        <time>2016-01-11T10:06:23.274Z</time>
      </trkpt>
      <trkpt lat="43.56438" lon="3.32335">
        <ele>191.5</ele>
        <time>2016-01-11T10:06:27.667Z</time>
      </trkpt>
      <trkpt lat="43.56417" lon="3.3233">
        <ele>190.3</ele>
        <time>2016-01-11T10:06:32.270Z</time>
      </trkpt>
      <trkpt lat="43.56408" lon="3.32329">
        <ele>189.8</ele>
        <time>2016-01-11T10:06:34.020Z</time>
      </trkpt>
      <trkpt lat="43.56398" lon="3.32326">
        <ele>188.3</ele>
        <time>2016-01-11T10:06:36.370Z</time>
      </trkpt>
      <trkpt lat="43.56381" lon="3.32321">
        <ele>188.3</ele>
        <time>2016-01-11T10:06:40.105Z</time>
      </trkpt>
      <trkpt lat="43.56371" lon="3.32313">
        <ele>188</ele>
        <time>2016-01-11T10:06:43.795Z</time>
      </trkpt>
      <trkpt lat="43.56354" lon="3.32294">
        <ele>187.8</ele>
        <time>2016-01-11T10:06:51.011Z</time>
      </trkpt>
      <trkpt lat="43.56351" lon="3.32282">
        <ele>188.5</ele>
        <time>2016-01-11T10:06:53.895Z</time>
      </trkpt>
      <trkpt lat="43.56351" lon="3.32284">
        <ele>187.8</ele>
        <time>2016-01-11T10:06:54.171Z</time>
      </trkpt>
      <trkpt lat="43.56351" lon="3.32282">
        <ele>188.5</ele>
        <time>2016-01-11T10:06:54.447Z</time>
      </trkpt>
      <trkpt lat="43.56346" lon="3.32266">
        <ele>189</ele>
        <time>2016-01-11T10:06:58.633Z</time>
      </trkpt>
      <trkpt lat="43.56337" lon="3.32246">
        <ele>189</ele>
        <time>2016-01-11T10:07:04.121Z</time>
      </trkpt>
      <trkpt lat="43.56336" lon="3.32243">
        <ele>190.8</ele>
        <time>2016-01-11T10:07:04.916Z</time>
      </trkpt>
      <trkpt lat="43.56324" lon="3.32224">
        <ele>190.8</ele>
        <time>2016-01-11T10:07:10.753Z</time>
      </trkpt>
      <trkpt lat="43.5632" lon="3.32224">
        <ele>191</ele>
        <time>2016-01-11T10:07:12.040Z</time>
      </trkpt>
      <trkpt lat="43.56318" lon="3.32224">
        <ele>191</ele>
        <time>2016-01-11T10:07:12.458Z</time>
      </trkpt>
      <trkpt lat="43.56318" lon="3.32229">
        <ele>190.8</ele>
        <time>2016-01-11T10:07:13.232Z</time>
      </trkpt>
      <trkpt lat="43.56318" lon="3.32246">
        <ele>189.5</ele>
        <time>2016-01-11T10:07:15.538Z</time>
      </trkpt>
      <trkpt lat="43.56296" lon="3.32309">
        <ele>187.8</ele>
        <time>2016-01-11T10:07:25.236Z</time>
      </trkpt>
      <trkpt lat="43.56286" lon="3.32335">
        <ele>187</ele>
        <time>2016-01-11T10:07:29.245Z</time>
      </trkpt>
      <trkpt lat="43.56274" lon="3.32363">
        <ele>187</ele>
        <time>2016-01-11T10:07:33.752Z</time>
      </trkpt>
      <trkpt lat="43.5627" lon="3.32371">
        <ele>187</ele>
        <time>2016-01-11T10:07:35.140Z</time>
      </trkpt>
      <trkpt lat="43.56263" lon="3.32389">
        <ele>186.8</ele>
        <time>2016-01-11T10:07:37.936Z</time>
      </trkpt>
      <trkpt lat="43.56257" lon="3.32405">
        <ele>186.8</ele>
        <time>2016-01-11T10:07:40.377Z</time>
      </trkpt>
      <trkpt lat="43.5625" lon="3.3243">
        <ele>186.3</ele>
        <time>2016-01-11T10:07:44.168Z</time>
      </trkpt>
      <trkpt lat="43.56246" lon="3.3246">
        <ele>186.5</ele>
        <time>2016-01-11T10:07:48.335Z</time>
      </trkpt>
      <trkpt lat="43.56237" lon="3.32486">
        <ele>188.5</ele>
        <time>2016-01-11T10:07:52.203Z</time>
      </trkpt>
      <trkpt lat="43.56237" lon="3.32488">
        <ele>188.5</ele>
        <time>2016-01-11T10:07:52.573Z</time>
      </trkpt>
      <trkpt lat="43.56227" lon="3.32513">
        <ele>191.5</ele>
        <time>2016-01-11T10:07:59.989Z</time>
      </trkpt>
      <trkpt lat="43.56224" lon="3.32516">
        <ele>195.3</ele>
        <time>2016-01-11T10:08:01.102Z</time>
      </trkpt>
      <trkpt lat="43.56214" lon="3.3253">
        <ele>195.3</ele>
        <time>2016-01-11T10:08:06.257Z</time>
      </trkpt>
      <trkpt lat="43.5621" lon="3.32532">
        <ele>196.5</ele>
        <time>2016-01-11T10:08:07.311Z</time>
      </trkpt>
      <trkpt lat="43.56207" lon="3.3253">
        <ele>197.8</ele>
        <time>2016-01-11T10:08:08.146Z</time>
      </trkpt>
      <trkpt lat="43.56207" lon="3.32522">
        <ele>198.3</ele>
        <time>2016-01-11T10:08:09.641Z</time>
      </trkpt>
      <trkpt lat="43.56212" lon="3.32506">
        <ele>196.8</ele>
        <time>2016-01-11T10:08:12.624Z</time>
      </trkpt>
      <trkpt lat="43.56213" lon="3.32503">
        <ele>196.8</ele>
        <time>2016-01-11T10:08:13.250Z</time>
      </trkpt>
      <trkpt lat="43.56219" lon="3.32483">
        <ele>195.8</ele>
        <time>2016-01-11T10:08:17.050Z</time>
      </trkpt>
      <trkpt lat="43.56219" lon="3.32482">
        <ele>195.8</ele>
        <time>2016-01-11T10:08:17.092Z</time>
      </trkpt>
      <trkpt lat="43.5622" lon="3.32447">
        <ele>197.5</ele>
        <time>2016-01-11T10:08:19.781Z</time>
      </trkpt>
      <trkpt lat="43.5622" lon="3.32443">
        <ele>197.5</ele>
        <time>2016-01-11T10:08:20.151Z</time>
      </trkpt>
      <trkpt lat="43.56219" lon="3.32406">
        <ele>199.5</ele>
        <time>2016-01-11T10:08:22.957Z</time>
      </trkpt>
      <trkpt lat="43.5622" lon="3.32377">
        <ele>199.5</ele>
        <time>2016-01-11T10:08:25.184Z</time>
      </trkpt>
      <trkpt lat="43.56216" lon="3.32374">
        <ele>200.8</ele>
        <time>2016-01-11T10:08:25.643Z</time>
      </trkpt>
      <trkpt lat="43.56211" lon="3.32377">
        <ele>202.5</ele>
        <time>2016-01-11T10:08:26.228Z</time>
      </trkpt>
      <trkpt lat="43.56208" lon="3.32395">
        <ele>204</ele>
        <time>2016-01-11T10:08:29.169Z</time>
      </trkpt>
      <trkpt lat="43.56206" lon="3.32402">
        <ele>208.8</ele>
        <time>2016-01-11T10:08:30.271Z</time>
      </trkpt>
      <trkpt lat="43.56188" lon="3.32469">
        <ele>208.8</ele>
        <time>2016-01-11T10:08:41.506Z</time>
      </trkpt>
      <trkpt lat="43.56187" lon="3.32471">
        <ele>211.5</ele>
        <time>2016-01-11T10:08:41.908Z</time>
      </trkpt>
      <trkpt lat="43.56177" lon="3.32491">
        <ele>211.5</ele>
        <time>2016-01-11T10:08:45.580Z</time>
      </trkpt>
      <trkpt lat="43.5616" lon="3.32518">
        <ele>215</ele>
        <time>2016-01-11T10:08:49.399Z</time>
      </trkpt>
      <trkpt lat="43.56141" lon="3.32551">
        <ele>217.3</ele>
        <time>2016-01-11T10:08:54.070Z</time>
      </trkpt>
      <trkpt lat="43.56139" lon="3.32555">
        <ele>217.3</ele>
        <time>2016-01-11T10:08:54.613Z</time>
      </trkpt>
      <trkpt lat="43.56115" lon="3.32589">
        <ele>220</ele>
        <time>2016-01-11T10:08:59.704Z</time>
      </trkpt>
      <trkpt lat="43.56103" lon="3.32599">
        <ele>221.5</ele>
        <time>2016-01-11T10:09:01.696Z</time>
      </trkpt>
      <trkpt lat="43.56103" lon="3.32599">
        <ele>221.5</ele>
        <time>2016-01-11T10:09:01.751Z</time>
      </trkpt>
      <trkpt lat="43.56078" lon="3.3261">
        <ele>226</ele>
        <time>2016-01-11T10:09:05.713Z</time>
      </trkpt>
      <trkpt lat="43.56065" lon="3.32617">
        <ele>231</ele>
        <time>2016-01-11T10:09:07.847Z</time>
      </trkpt>
      <trkpt lat="43.56049" lon="3.32626">
        <ele>231</ele>
        <time>2016-01-11T10:09:10.562Z</time>
      </trkpt>
      <trkpt lat="43.56039" lon="3.32634">
        <ele>232.5</ele>
        <time>2016-01-11T10:09:12.374Z</time>
      </trkpt>
      <trkpt lat="43.56036" lon="3.32637">
        <ele>232.5</ele>
        <time>2016-01-11T10:09:12.793Z</time>
      </trkpt>
      <trkpt lat="43.56032" lon="3.32654">
        <ele>231</ele>
        <time>2016-01-11T10:09:15.449Z</time>
      </trkpt>
      <trkpt lat="43.5603" lon="3.32668">
        <ele>232</ele>
        <time>2016-01-11T10:09:17.421Z</time>
      </trkpt>
      <trkpt lat="43.56023" lon="3.32708">
        <ele>232</ele>
        <time>2016-01-11T10:09:23.287Z</time>
      </trkpt>
      <trkpt lat="43.56023" lon="3.32726">
        <ele>232.3</ele>
        <time>2016-01-11T10:09:25.848Z</time>
      </trkpt>
      <trkpt lat="43.56023" lon="3.32732">
        <ele>232.3</ele>
        <time>2016-01-11T10:09:26.744Z</time>
      </trkpt>
      <trkpt lat="43.5603" lon="3.32739">
        <ele>229.5</ele>
        <time>2016-01-11T10:09:28.918Z</time>
      </trkpt>
      <trkpt lat="43.56037" lon="3.32756">
        <ele>226.8</ele>
        <time>2016-01-11T10:09:32.480Z</time>
      </trkpt>
      <trkpt lat="43.56038" lon="3.32762">
        <ele>226.3</ele>
        <time>2016-01-11T10:09:33.650Z</time>
      </trkpt>
      <trkpt lat="43.5604" lon="3.32771">
        <ele>226.3</ele>
        <time>2016-01-11T10:09:35.404Z</time>
      </trkpt>
      <trkpt lat="43.5604" lon="3.32815">
        <ele>227.8</ele>
        <time>2016-01-11T10:09:43.426Z</time>
      </trkpt>
      <trkpt lat="43.56038" lon="3.32822">
        <ele>230.3</ele>
        <time>2016-01-11T10:09:44.609Z</time>
      </trkpt>
      <trkpt lat="43.56033" lon="3.32846">
        <ele>230.3</ele>
        <time>2016-01-11T10:09:49.253Z</time>
      </trkpt>
      <trkpt lat="43.56023" lon="3.32867">
        <ele>232</ele>
        <time>2016-01-11T10:09:52.713Z</time>
      </trkpt>
      <trkpt lat="43.56019" lon="3.32877">
        <ele>233</ele>
        <time>2016-01-11T10:09:54.286Z</time>
      </trkpt>
      <trkpt lat="43.56009" lon="3.32894">
        <ele>235</ele>
        <time>2016-01-11T10:09:57.425Z</time>
      </trkpt>
      <trkpt lat="43.56017" lon="3.32899">
        <ele>231.8</ele>
        <time>2016-01-11T10:09:59.082Z</time>
      </trkpt>
      <trkpt lat="43.56027" lon="3.32899">
        <ele>228.3</ele>
        <time>2016-01-11T10:10:01.004Z</time>
      </trkpt>
      <trkpt lat="43.56031" lon="3.32901">
        <ele>226.8</ele>
        <time>2016-01-11T10:10:01.795Z</time>
      </trkpt>
      <trkpt lat="43.56033" lon="3.32907">
        <ele>225.8</ele>
        <time>2016-01-11T10:10:02.699Z</time>
      </trkpt>
      <trkpt lat="43.56038" lon="3.32951">
        <ele>220.5</ele>
        <time>2016-01-11T10:10:08.835Z</time>
      </trkpt>
      <trkpt lat="43.56036" lon="3.32957">
        <ele>220.5</ele>
        <time>2016-01-11T10:10:09.806Z</time>
      </trkpt>
      <trkpt lat="43.5603" lon="3.32978">
        <ele>221</ele>
        <time>2016-01-11T10:10:12.898Z</time>
      </trkpt>
      <trkpt lat="43.56029" lon="3.32992">
        <ele>220.5</ele>
        <time>2016-01-11T10:10:14.879Z</time>
      </trkpt>
      <trkpt lat="43.56027" lon="3.33">
        <ele>220.8</ele>
        <time>2016-01-11T10:10:16.088Z</time>
      </trkpt>
      <trkpt lat="43.56021" lon="3.32996">
        <ele>223.3</ele>
        <time>2016-01-11T10:10:17.303Z</time>
      </trkpt>
      <trkpt lat="43.56014" lon="3.33001">
        <ele>225.5</ele>
        <time>2016-01-11T10:10:18.780Z</time>
      </trkpt>
      <trkpt lat="43.56013" lon="3.32999">
        <ele>225.8</ele>
        <time>2016-01-11T10:10:19.138Z</time>
      </trkpt>
      <trkpt lat="43.56014" lon="3.3299">
        <ele>226.3</ele>
        <time>2016-01-11T10:10:20.386Z</time>
      </trkpt>
      <trkpt lat="43.5601" lon="3.32996">
        <ele>227.3</ele>
        <time>2016-01-11T10:10:21.544Z</time>
      </trkpt>
      <trkpt lat="43.56009" lon="3.32997">
        <ele>228.3</ele>
        <time>2016-01-11T10:10:21.890Z</time>
      </trkpt>
      <trkpt lat="43.56007" lon="3.32998">
        <ele>228.3</ele>
        <time>2016-01-11T10:10:22.219Z</time>
      </trkpt>
      <trkpt lat="43.56006" lon="3.32994">
        <ele>229</ele>
        <time>2016-01-11T10:10:22.829Z</time>
      </trkpt>
      <trkpt lat="43.56007" lon="3.3299">
        <ele>228.8</ele>
        <time>2016-01-11T10:10:23.339Z</time>
      </trkpt>
      <trkpt lat="43.56007" lon="3.32985">
        <ele>229.3</ele>
        <time>2016-01-11T10:10:24.072Z</time>
      </trkpt>
      <trkpt lat="43.5599" lon="3.32969">
        <ele>234.5</ele>
        <time>2016-01-11T10:10:28.038Z</time>
      </trkpt>
      <trkpt lat="43.55995" lon="3.32954">
        <ele>234.5</ele>
        <time>2016-01-11T10:10:30.358Z</time>
      </trkpt>
      <trkpt lat="43.56002" lon="3.32915">
        <ele>235.5</ele>
        <time>2016-01-11T10:10:36.040Z</time>
      </trkpt>
      <trkpt lat="43.56003" lon="3.32902">
        <ele>236.3</ele>
        <time>2016-01-11T10:10:37.875Z</time>
      </trkpt>
      <trkpt lat="43.55996" lon="3.32906">
        <ele>238</ele>
        <time>2016-01-11T10:10:39.429Z</time>
      </trkpt>
      <trkpt lat="43.55984" lon="3.3291">
        <ele>240</ele>
        <time>2016-01-11T10:10:41.728Z</time>
      </trkpt>
      <trkpt lat="43.55983" lon="3.32911">
        <ele>240</ele>
        <time>2016-01-11T10:10:41.934Z</time>
      </trkpt>
      <trkpt lat="43.55963" lon="3.32921">
        <ele>243</ele>
        <time>2016-01-11T10:10:45.878Z</time>
      </trkpt>
      <trkpt lat="43.55948" lon="3.32934">
        <ele>244.8</ele>
        <time>2016-01-11T10:10:49.083Z</time>
      </trkpt>
      <trkpt lat="43.55937" lon="3.32948">
        <ele>245.5</ele>
        <time>2016-01-11T10:10:51.886Z</time>
      </trkpt>
      <trkpt lat="43.55936" lon="3.32952">
        <ele>244.3</ele>
        <time>2016-01-11T10:10:52.451Z</time>
      </trkpt>
      <trkpt lat="43.5593" lon="3.3297">
        <ele>244.3</ele>
        <time>2016-01-11T10:10:55.068Z</time>
      </trkpt>
      <trkpt lat="43.55928" lon="3.32976">
        <ele>244</ele>
        <time>2016-01-11T10:10:55.898Z</time>
      </trkpt>
      <trkpt lat="43.55918" lon="3.32982">
        <ele>244.8</ele>
        <time>2016-01-11T10:10:57.925Z</time>
      </trkpt>
      <trkpt lat="43.55916" lon="3.32985">
        <ele>245</ele>
        <time>2016-01-11T10:10:58.575Z</time>
      </trkpt>
      <trkpt lat="43.5591" lon="3.32994">
        <ele>245</ele>
        <time>2016-01-11T10:11:00.151Z</time>
      </trkpt>
      <trkpt lat="43.55896" lon="3.33041">
        <ele>243.3</ele>
        <time>2016-01-11T10:11:07.060Z</time>
      </trkpt>
      <trkpt lat="43.55883" lon="3.33061">
        <ele>244</ele>
        <time>2016-01-11T10:11:10.764Z</time>
      </trkpt>
      <trkpt lat="43.55866" lon="3.33082">
        <ele>245.3</ele>
        <time>2016-01-11T10:11:15.019Z</time>
      </trkpt>
      <trkpt lat="43.55859" lon="3.33094">
        <ele>246</ele>
        <time>2016-01-11T10:11:17.121Z</time>
      </trkpt>
      <trkpt lat="43.5585" lon="3.33109">
        <ele>246.5</ele>
        <time>2016-01-11T10:11:19.829Z</time>
      </trkpt>
      <trkpt lat="43.55835" lon="3.3314">
        <ele>246.3</ele>
        <time>2016-01-11T10:11:24.844Z</time>
      </trkpt>
      <trkpt lat="43.55825" lon="3.33155">
        <ele>247</ele>
        <time>2016-01-11T10:11:27.632Z</time>
      </trkpt>
      <trkpt lat="43.55812" lon="3.33183">
        <ele>250</ele>
        <time>2016-01-11T10:11:32.181Z</time>
      </trkpt>
      <trkpt lat="43.55798" lon="3.33224">
        <ele>254</ele>
        <time>2016-01-11T10:11:38.271Z</time>
      </trkpt>
      <trkpt lat="43.5579" lon="3.33252">
        <ele>256</ele>
        <time>2016-01-11T10:11:42.398Z</time>
      </trkpt>
      <trkpt lat="43.55787" lon="3.33265">
        <ele>256</ele>
        <time>2016-01-11T10:11:44.155Z</time>
      </trkpt>
      <trkpt lat="43.55771" lon="3.33313">
        <ele>256.3</ele>
        <time>2016-01-11T10:11:51.489Z</time>
      </trkpt>
      <trkpt lat="43.55762" lon="3.33334">
        <ele>255.3</ele>
        <time>2016-01-11T10:11:54.698Z</time>
      </trkpt>
      <trkpt lat="43.55758" lon="3.33345">
        <ele>255.3</ele>
        <time>2016-01-11T10:11:56.435Z</time>
      </trkpt>
      <trkpt lat="43.55737" lon="3.33385">
        <ele>255.8</ele>
        <time>2016-01-11T10:12:03.136Z</time>
      </trkpt>
      <trkpt lat="43.55714" lon="3.33416">
        <ele>256.3</ele>
        <time>2016-01-11T10:12:09.134Z</time>
      </trkpt>
      <trkpt lat="43.557" lon="3.33442">
        <ele>258</ele>
        <time>2016-01-11T10:12:13.514Z</time>
      </trkpt>
      <trkpt lat="43.55699" lon="3.33446">
        <ele>259.3</ele>
        <time>2016-01-11T10:12:14.086Z</time>
      </trkpt>
      <trkpt lat="43.55692" lon="3.33459">
        <ele>259.3</ele>
        <time>2016-01-11T10:12:16.210Z</time>
      </trkpt>
      <trkpt lat="43.55693" lon="3.33437">
        <ele>257.8</ele>
        <time>2016-01-11T10:12:18.732Z</time>
      </trkpt>
      <trkpt lat="43.55697" lon="3.33422">
        <ele>256.8</ele>
        <time>2016-01-11T10:12:20.547Z</time>
      </trkpt>
      <trkpt lat="43.55709" lon="3.33392">
        <ele>256.3</ele>
        <time>2016-01-11T10:12:24.652Z</time>
      </trkpt>
      <trkpt lat="43.55707" lon="3.33379">
        <ele>256.5</ele>
        <time>2016-01-11T10:12:26.187Z</time>
      </trkpt>
      <trkpt lat="43.55702" lon="3.33374">
        <ele>256.5</ele>
        <time>2016-01-11T10:12:27.211Z</time>
      </trkpt>
      <trkpt lat="43.55699" lon="3.33369">
        <ele>257</ele>
        <time>2016-01-11T10:12:28.024Z</time>
      </trkpt>
      <trkpt lat="43.5569" lon="3.33356">
        <ele>257</ele>
        <time>2016-01-11T10:12:30.063Z</time>
      </trkpt>
      <trkpt lat="43.55667" lon="3.33331">
        <ele>258</ele>
        <time>2016-01-11T10:12:34.791Z</time>
      </trkpt>
      <trkpt lat="43.55643" lon="3.33312">
        <ele>258.5</ele>
        <time>2016-01-11T10:12:39.324Z</time>
      </trkpt>
      <trkpt lat="43.55598" lon="3.33304">
        <ele>257</ele>
        <time>2016-01-11T10:12:46.612Z</time>
      </trkpt>
      <trkpt lat="43.55565" lon="3.33297">
        <ele>254.8</ele>
        <time>2016-01-11T10:12:51.921Z</time>
      </trkpt>
      <trkpt lat="43.5554" lon="3.33291">
        <ele>254.8</ele>
        <time>2016-01-11T10:12:56.146Z</time>
      </trkpt>
      <trkpt lat="43.55533" lon="3.33281">
        <ele>254.8</ele>
        <time>2016-01-11T10:12:57.906Z</time>
      </trkpt>
      <trkpt lat="43.55532" lon="3.33278">
        <ele>254.5</ele>
        <time>2016-01-11T10:12:58.319Z</time>
      </trkpt>
      <trkpt lat="43.55527" lon="3.33268">
        <ele>254.5</ele>
        <time>2016-01-11T10:12:59.973Z</time>
      </trkpt>
      <trkpt lat="43.55522" lon="3.33242">
        <ele>254.3</ele>
        <time>2016-01-11T10:13:03.537Z</time>
      </trkpt>
      <trkpt lat="43.55511" lon="3.3322">
        <ele>253.5</ele>
        <time>2016-01-11T10:13:07.073Z</time>
      </trkpt>
      <trkpt lat="43.55505" lon="3.33212">
        <ele>252.5</ele>
        <time>2016-01-11T10:13:08.685Z</time>
      </trkpt>
      <trkpt lat="43.555" lon="3.33207">
        <ele>252.5</ele>
        <time>2016-01-11T10:13:09.815Z</time>
      </trkpt>
      <trkpt lat="43.55481" lon="3.33203">
        <ele>252.3</ele>
        <time>2016-01-11T10:13:15.841Z</time>
      </trkpt>
      <trkpt lat="43.55456" lon="3.33206">
        <ele>252.3</ele>
        <time>2016-01-11T10:13:23.412Z</time>
      </trkpt>
      <trkpt lat="43.55446" lon="3.33208">
        <ele>252</ele>
        <time>2016-01-11T10:13:26.538Z</time>
      </trkpt>
      <trkpt lat="43.55434" lon="3.33214">
        <ele>251.8</ele>
        <time>2016-01-11T10:13:30.489Z</time>
      </trkpt>
      <trkpt lat="43.55425" lon="3.33213">
        <ele>251.8</ele>
        <time>2016-01-11T10:13:32.356Z</time>
      </trkpt>
      <trkpt lat="43.55423" lon="3.332">
        <ele>252.3</ele>
        <time>2016-01-11T10:13:34.546Z</time>
      </trkpt>
      <trkpt lat="43.55424" lon="3.33188">
        <ele>252.8</ele>
        <time>2016-01-11T10:13:36.443Z</time>
      </trkpt>
      <trkpt lat="43.55419" lon="3.33171">
        <ele>253.8</ele>
        <time>2016-01-11T10:13:39.341Z</time>
      </trkpt>
      <trkpt lat="43.55413" lon="3.33158">
        <ele>254.5</ele>
        <time>2016-01-11T10:13:41.757Z</time>
      </trkpt>
      <trkpt lat="43.55413" lon="3.33146">
        <ele>255.3</ele>
        <time>2016-01-11T10:13:43.626Z</time>
      </trkpt>
      <trkpt lat="43.55413" lon="3.33143">
        <ele>255.3</ele>
        <time>2016-01-11T10:13:44.050Z</time>
      </trkpt>
      <trkpt lat="43.55412" lon="3.33127">
        <ele>256.3</ele>
        <time>2016-01-11T10:13:46.583Z</time>
      </trkpt>
      <trkpt lat="43.55421" lon="3.33117">
        <ele>256.3</ele>
        <time>2016-01-11T10:13:49.140Z</time>
      </trkpt>
      <trkpt lat="43.55425" lon="3.33104">
        <ele>256.8</ele>
        <time>2016-01-11T10:13:51.392Z</time>
      </trkpt>
      <trkpt lat="43.55429" lon="3.3308">
        <ele>257.5</ele>
        <time>2016-01-11T10:13:55.158Z</time>
      </trkpt>
      <trkpt lat="43.55437" lon="3.33063">
        <ele>258.5</ele>
        <time>2016-01-11T10:13:58.297Z</time>
      </trkpt>
      <trkpt lat="43.55464" lon="3.33006">
        <ele>260.3</ele>
        <time>2016-01-11T10:14:09.105Z</time>
      </trkpt>
      <trkpt lat="43.55471" lon="3.32987">
        <ele>261</ele>
        <time>2016-01-11T10:14:12.367Z</time>
      </trkpt>
      <trkpt lat="43.55477" lon="3.3296">
        <ele>262.5</ele>
        <time>2016-01-11T10:14:16.893Z</time>
      </trkpt>
      <trkpt lat="43.55482" lon="3.32942">
        <ele>263.5</ele>
        <time>2016-01-11T10:14:19.920Z</time>
      </trkpt>
      <trkpt lat="43.55493" lon="3.32916">
        <ele>264.5</ele>
        <time>2016-01-11T10:14:24.619Z</time>
      </trkpt>
      <trkpt lat="43.55499" lon="3.32901">
        <ele>265</ele>
        <time>2016-01-11T10:14:27.372Z</time>
      </trkpt>
      <trkpt lat="43.55499" lon="3.32899">
        <ele>265</ele>
        <time>2016-01-11T10:14:27.654Z</time>
      </trkpt>
      <trkpt lat="43.55505" lon="3.32866">
        <ele>266.5</ele>
        <time>2016-01-11T10:14:31.794Z</time>
      </trkpt>
      <trkpt lat="43.55524" lon="3.32773">
        <ele>267.3</ele>
        <time>2016-01-11T10:14:43.434Z</time>
      </trkpt>
      <trkpt lat="43.55532" lon="3.32738">
        <ele>267.3</ele>
        <time>2016-01-11T10:14:47.914Z</time>
      </trkpt>
      <trkpt lat="43.55535" lon="3.32721">
        <ele>267.5</ele>
        <time>2016-01-11T10:14:50.239Z</time>
      </trkpt>
      <trkpt lat="43.55536" lon="3.32713">
        <ele>267.8</ele>
        <time>2016-01-11T10:14:51.244Z</time>
      </trkpt>
      <trkpt lat="43.55538" lon="3.32688">
        <ele>268.5</ele>
        <time>2016-01-11T10:14:54.621Z</time>
      </trkpt>
      <trkpt lat="43.55537" lon="3.32647">
        <ele>270</ele>
        <time>2016-01-11T10:15:00.201Z</time>
      </trkpt>
      <trkpt lat="43.55537" lon="3.32644">
        <ele>270.3</ele>
        <time>2016-01-11T10:15:00.605Z</time>
      </trkpt>
      <trkpt lat="43.55535" lon="3.32616">
        <ele>271</ele>
        <time>2016-01-11T10:15:04.310Z</time>
      </trkpt>
      <trkpt lat="43.55536" lon="3.3259">
        <ele>271.8</ele>
        <time>2016-01-11T10:15:07.804Z</time>
      </trkpt>
      <trkpt lat="43.55536" lon="3.3259">
        <ele>271.8</ele>
        <time>2016-01-11T10:15:07.873Z</time>
      </trkpt>
      <trkpt lat="43.5554" lon="3.32555">
        <ele>271</ele>
        <time>2016-01-11T10:15:12.579Z</time>
      </trkpt>
      <trkpt lat="43.55539" lon="3.3252">
        <ele>271</ele>
        <time>2016-01-11T10:15:17.358Z</time>
      </trkpt>
      <trkpt lat="43.55539" lon="3.32517">
        <ele>271</ele>
        <time>2016-01-11T10:15:17.801Z</time>
      </trkpt>
      <trkpt lat="43.55535" lon="3.32493">
        <ele>271.8</ele>
        <time>2016-01-11T10:15:21.248Z</time>
      </trkpt>
      <trkpt lat="43.55529" lon="3.32482">
        <ele>273</ele>
        <time>2016-01-11T10:15:23.292Z</time>
      </trkpt>
      <trkpt lat="43.55523" lon="3.32464">
        <ele>274.3</ele>
        <time>2016-01-11T10:15:26.134Z</time>
      </trkpt>
      <trkpt lat="43.55512" lon="3.32438">
        <ele>275.8</ele>
        <time>2016-01-11T10:15:30.533Z</time>
      </trkpt>
      <trkpt lat="43.55503" lon="3.32416">
        <ele>276.5</ele>
        <time>2016-01-11T10:15:34.185Z</time>
      </trkpt>
      <trkpt lat="43.55489" lon="3.32397">
        <ele>277.3</ele>
        <time>2016-01-11T10:15:38.029Z</time>
      </trkpt>
      <trkpt lat="43.55477" lon="3.32385">
        <ele>277.8</ele>
        <time>2016-01-11T10:15:41.095Z</time>
      </trkpt>
      <trkpt lat="43.55472" lon="3.3238">
        <ele>277.8</ele>
        <time>2016-01-11T10:15:42.331Z</time>
      </trkpt>
      <trkpt lat="43.55454" lon="3.32372">
        <ele>278.5</ele>
        <time>2016-01-11T10:15:46.066Z</time>
      </trkpt>
      <trkpt lat="43.55433" lon="3.32368">
        <ele>279.3</ele>
        <time>2016-01-11T10:15:50.289Z</time>
      </trkpt>
      <trkpt lat="43.55407" lon="3.32366">
        <ele>281</ele>
        <time>2016-01-11T10:15:55.480Z</time>
      </trkpt>
      <trkpt lat="43.55396" lon="3.32364">
        <ele>282.5</ele>
        <time>2016-01-11T10:15:57.796Z</time>
      </trkpt>
      <trkpt lat="43.55395" lon="3.32364">
        <ele>282.5</ele>
        <time>2016-01-11T10:15:58.057Z</time>
      </trkpt>
      <trkpt lat="43.55377" lon="3.32344">
        <ele>282.8</ele>
        <time>2016-01-11T10:16:01.899Z</time>
      </trkpt>
      <trkpt lat="43.55348" lon="3.32331">
        <ele>285</ele>
        <time>2016-01-11T10:16:06.912Z</time>
      </trkpt>
      <trkpt lat="43.55322" lon="3.323">
        <ele>287</ele>
        <time>2016-01-11T10:16:12.858Z</time>
      </trkpt>
      <trkpt lat="43.55313" lon="3.32296">
        <ele>288</ele>
        <time>2016-01-11T10:16:14.615Z</time>
      </trkpt>
      <trkpt lat="43.55291" lon="3.32297">
        <ele>290.3</ele>
        <time>2016-01-11T10:16:18.410Z</time>
      </trkpt>
      <trkpt lat="43.55285" lon="3.32298">
        <ele>294</ele>
        <time>2016-01-11T10:16:19.520Z</time>
      </trkpt>
      <trkpt lat="43.55258" lon="3.32303">
        <ele>294</ele>
        <time>2016-01-11T10:16:24.174Z</time>
      </trkpt>
      <trkpt lat="43.55244" lon="3.32308">
        <ele>295.3</ele>
        <time>2016-01-11T10:16:26.679Z</time>
      </trkpt>
      <trkpt lat="43.55231" lon="3.32315">
        <ele>296</ele>
        <time>2016-01-11T10:16:29.238Z</time>
      </trkpt>
      <trkpt lat="43.55227" lon="3.32318">
        <ele>296</ele>
        <time>2016-01-11T10:16:29.963Z</time>
      </trkpt>
      <trkpt lat="43.55205" lon="3.32339">
        <ele>296.8</ele>
        <time>2016-01-11T10:16:33.590Z</time>
      </trkpt>
      <trkpt lat="43.5519" lon="3.32356">
        <ele>298</ele>
        <time>2016-01-11T10:16:36.170Z</time>
      </trkpt>
      <trkpt lat="43.5516" lon="3.32381">
        <ele>299.8</ele>
        <time>2016-01-11T10:16:41.001Z</time>
      </trkpt>
      <trkpt lat="43.55135" lon="3.32404">
        <ele>302.8</ele>
        <time>2016-01-11T10:16:44.991Z</time>
      </trkpt>
      <trkpt lat="43.5512" lon="3.32422">
        <ele>304.5</ele>
        <time>2016-01-11T10:16:47.681Z</time>
      </trkpt>
      <trkpt lat="43.55093" lon="3.3246">
        <ele>307</ele>
        <time>2016-01-11T10:16:52.928Z</time>
      </trkpt>
      <trkpt lat="43.55088" lon="3.32466">
        <ele>306.8</ele>
        <time>2016-01-11T10:16:53.900Z</time>
      </trkpt>
      <trkpt lat="43.55078" lon="3.32477">
        <ele>306.8</ele>
        <time>2016-01-11T10:16:55.583Z</time>
      </trkpt>
      <trkpt lat="43.55057" lon="3.32492">
        <ele>305.3</ele>
        <time>2016-01-11T10:16:58.829Z</time>
      </trkpt>
      <trkpt lat="43.55036" lon="3.32508">
        <ele>303.5</ele>
        <time>2016-01-11T10:17:01.972Z</time>
      </trkpt>
      <trkpt lat="43.55032" lon="3.32511">
        <ele>301.3</ele>
        <time>2016-01-11T10:17:02.677Z</time>
      </trkpt>
      <trkpt lat="43.55018" lon="3.32519">
        <ele>301.5</ele>
        <time>2016-01-11T10:17:06.326Z</time>
      </trkpt>
      <trkpt lat="43.55015" lon="3.32521">
        <ele>301.3</ele>
        <time>2016-01-11T10:17:07.089Z</time>
      </trkpt>
      <trkpt lat="43.55014" lon="3.32518">
        <ele>301.3</ele>
        <time>2016-01-11T10:17:07.646Z</time>
      </trkpt>
      <trkpt lat="43.54999" lon="3.32503">
        <ele>300.5</ele>
        <time>2016-01-11T10:17:12.316Z</time>
      </trkpt>
      <trkpt lat="43.54994" lon="3.32497">
        <ele>299.8</ele>
        <time>2016-01-11T10:17:13.999Z</time>
      </trkpt>
      <trkpt lat="43.54991" lon="3.32494">
        <ele>299.8</ele>
        <time>2016-01-11T10:17:14.880Z</time>
      </trkpt>
      <trkpt lat="43.54982" lon="3.32469">
        <ele>299.3</ele>
        <time>2016-01-11T10:17:19.930Z</time>
      </trkpt>
      <trkpt lat="43.54978" lon="3.32448">
        <ele>299.5</ele>
        <time>2016-01-11T10:17:23.903Z</time>
      </trkpt>
      <trkpt lat="43.54976" lon="3.32429">
        <ele>300.8</ele>
        <time>2016-01-11T10:17:27.384Z</time>
      </trkpt>
      <trkpt lat="43.54975" lon="3.32404">
        <ele>300.8</ele>
        <time>2016-01-11T10:17:31.917Z</time>
      </trkpt>
      <trkpt lat="43.54977" lon="3.32365">
        <ele>301.3</ele>
        <time>2016-01-11T10:17:37.277Z</time>
      </trkpt>
      <trkpt lat="43.54977" lon="3.32295">
        <ele>301.5</ele>
        <time>2016-01-11T10:17:46.852Z</time>
      </trkpt>
      <trkpt lat="43.54979" lon="3.32273">
        <ele>302</ele>
        <time>2016-01-11T10:17:50.037Z</time>
      </trkpt>
      <trkpt lat="43.54988" lon="3.32255">
        <ele>303.3</ele>
        <time>2016-01-11T10:17:52.938Z</time>
      </trkpt>
      <trkpt lat="43.54996" lon="3.32249">
        <ele>304.3</ele>
        <time>2016-01-11T10:17:54.695Z</time>
      </trkpt>
      <trkpt lat="43.54998" lon="3.32241">
        <ele>305</ele>
        <time>2016-01-11T10:17:55.783Z</time>
      </trkpt>
      <trkpt lat="43.54999" lon="3.32237">
        <ele>305</ele>
        <time>2016-01-11T10:17:56.392Z</time>
      </trkpt>
      <trkpt lat="43.54995" lon="3.32225">
        <ele>305</ele>
        <time>2016-01-11T10:17:58.249Z</time>
      </trkpt>
      <trkpt lat="43.54983" lon="3.32204">
        <ele>304.5</ele>
        <time>2016-01-11T10:18:01.990Z</time>
      </trkpt>
      <trkpt lat="43.54972" lon="3.32192">
        <ele>304</ele>
        <time>2016-01-11T10:18:04.660Z</time>
      </trkpt>
      <trkpt lat="43.54974" lon="3.32186">
        <ele>306</ele>
        <time>2016-01-11T10:18:05.532Z</time>
      </trkpt>
      <trkpt lat="43.54981" lon="3.32167">
        <ele>306</ele>
        <time>2016-01-11T10:18:08.575Z</time>
      </trkpt>
      <trkpt lat="43.54985" lon="3.32151">
        <ele>306.3</ele>
        <time>2016-01-11T10:18:10.357Z</time>
      </trkpt>
      <trkpt lat="43.54985" lon="3.32144">
        <ele>306.3</ele>
        <time>2016-01-11T10:18:11.089Z</time>
      </trkpt>
      <trkpt lat="43.54985" lon="3.32126">
        <ele>306.5</ele>
        <time>2016-01-11T10:18:13.059Z</time>
      </trkpt>
      <trkpt lat="43.54984" lon="3.32121">
        <ele>307.3</ele>
        <time>2016-01-11T10:18:13.620Z</time>
      </trkpt>
      <trkpt lat="43.54977" lon="3.32073">
        <ele>307.3</ele>
        <time>2016-01-11T10:18:18.930Z</time>
      </trkpt>
      <trkpt lat="43.54969" lon="3.32019">
        <ele>307.5</ele>
        <time>2016-01-11T10:18:24.853Z</time>
      </trkpt>
      <trkpt lat="43.54973" lon="3.31987">
        <ele>307.5</ele>
        <time>2016-01-11T10:18:28.298Z</time>
      </trkpt>
      <trkpt lat="43.54979" lon="3.31973">
        <ele>307.3</ele>
        <time>2016-01-11T10:18:30.117Z</time>
      </trkpt>
      <trkpt lat="43.54976" lon="3.31977">
        <ele>308.5</ele>
        <time>2016-01-11T10:18:30.803Z</time>
      </trkpt>
      <trkpt lat="43.54979" lon="3.31973">
        <ele>307.3</ele>
        <time>2016-01-11T10:18:31.489Z</time>
      </trkpt>
      <trkpt lat="43.54983" lon="3.31964">
        <ele>307.3</ele>
        <time>2016-01-11T10:18:32.728Z</time>
      </trkpt>
      <trkpt lat="43.5501" lon="3.31935">
        <ele>307.3</ele>
        <time>2016-01-11T10:18:38.315Z</time>
      </trkpt>
      <trkpt lat="43.55016" lon="3.31929">
        <ele>307.3</ele>
        <time>2016-01-11T10:18:39.552Z</time>
      </trkpt>
      <trkpt lat="43.55034" lon="3.31915">
        <ele>307.5</ele>
        <time>2016-01-11T10:18:43.010Z</time>
      </trkpt>
      <trkpt lat="43.55082" lon="3.31891">
        <ele>307.8</ele>
        <time>2016-01-11T10:18:51.398Z</time>
      </trkpt>
      <trkpt lat="43.55088" lon="3.31887">
        <ele>308.3</ele>
        <time>2016-01-11T10:18:52.173Z</time>
      </trkpt>
      <trkpt lat="43.5511" lon="3.31874">
        <ele>310.3</ele>
        <time>2016-01-11T10:18:54.906Z</time>
      </trkpt>
      <trkpt lat="43.55114" lon="3.31872">
        <ele>311.8</ele>
        <time>2016-01-11T10:18:55.463Z</time>
      </trkpt>
      <trkpt lat="43.55125" lon="3.31868">
        <ele>311.8</ele>
        <time>2016-01-11T10:18:56.759Z</time>
      </trkpt>
      <trkpt lat="43.55163" lon="3.31857">
        <ele>315.5</ele>
        <time>2016-01-11T10:19:01.151Z</time>
      </trkpt>
      <trkpt lat="43.55192" lon="3.31863">
        <ele>317.8</ele>
        <time>2016-01-11T10:19:04.436Z</time>
      </trkpt>
      <trkpt lat="43.55193" lon="3.31863">
        <ele>318</ele>
        <time>2016-01-11T10:19:04.627Z</time>
      </trkpt>
      <trkpt lat="43.55213" lon="3.31857">
        <ele>320.8</ele>
        <time>2016-01-11T10:19:07.919Z</time>
      </trkpt>
      <trkpt lat="43.55236" lon="3.31857">
        <ele>324.3</ele>
        <time>2016-01-11T10:19:11.394Z</time>
      </trkpt>
      <trkpt lat="43.55266" lon="3.31858">
        <ele>324.3</ele>
        <time>2016-01-11T10:19:16.174Z</time>
      </trkpt>
      <trkpt lat="43.55276" lon="3.31856">
        <ele>324.3</ele>
        <time>2016-01-11T10:19:17.691Z</time>
      </trkpt>
      <trkpt lat="43.55277" lon="3.31856">
        <ele>324.3</ele>
        <time>2016-01-11T10:19:17.864Z</time>
      </trkpt>
      <trkpt lat="43.55276" lon="3.31856">
        <ele>324.3</ele>
        <time>2016-01-11T10:19:18.037Z</time>
      </trkpt>
      <trkpt lat="43.55279" lon="3.31843">
        <ele>325.8</ele>
        <time>2016-01-11T10:19:19.307Z</time>
      </trkpt>
      <trkpt lat="43.55279" lon="3.31833">
        <ele>327.5</ele>
        <time>2016-01-11T10:19:20.179Z</time>
      </trkpt>
      <trkpt lat="43.55278" lon="3.31828">
        <ele>327.5</ele>
        <time>2016-01-11T10:19:20.588Z</time>
      </trkpt>
      <trkpt lat="43.55278" lon="3.31824">
        <ele>327.5</ele>
        <time>2016-01-11T10:19:20.979Z</time>
      </trkpt>
      <trkpt lat="43.55274" lon="3.31816">
        <ele>328</ele>
        <time>2016-01-11T10:19:21.843Z</time>
      </trkpt>
      <trkpt lat="43.55273" lon="3.31815">
        <ele>328</ele>
        <time>2016-01-11T10:19:21.940Z</time>
      </trkpt>
      <trkpt lat="43.55272" lon="3.31804">
        <ele>328.8</ele>
        <time>2016-01-11T10:19:23.825Z</time>
      </trkpt>
      <trkpt lat="43.55274" lon="3.31784">
        <ele>330</ele>
        <time>2016-01-11T10:19:27.113Z</time>
      </trkpt>
      <trkpt lat="43.55277" lon="3.31775">
        <ele>330.5</ele>
        <time>2016-01-11T10:19:28.679Z</time>
      </trkpt>
      <trkpt lat="43.55279" lon="3.31769">
        <ele>331</ele>
        <time>2016-01-11T10:19:29.751Z</time>
      </trkpt>
      <trkpt lat="43.55291" lon="3.31751">
        <ele>332.8</ele>
        <time>2016-01-11T10:19:33.649Z</time>
      </trkpt>
      <trkpt lat="43.55294" lon="3.31743">
        <ele>332.3</ele>
        <time>2016-01-11T10:19:35.122Z</time>
      </trkpt>
      <trkpt lat="43.55299" lon="3.31733">
        <ele>332</ele>
        <time>2016-01-11T10:19:36.999Z</time>
      </trkpt>
      <trkpt lat="43.55311" lon="3.31703">
        <ele>331</ele>
        <time>2016-01-11T10:19:42.296Z</time>
      </trkpt>
      <trkpt lat="43.55318" lon="3.31694">
        <ele>331.3</ele>
        <time>2016-01-11T10:19:44.322Z</time>
      </trkpt>
      <trkpt lat="43.55329" lon="3.31695">
        <ele>332.5</ele>
        <time>2016-01-11T10:19:46.812Z</time>
      </trkpt>
      <trkpt lat="43.55342" lon="3.31692">
        <ele>332.5</ele>
        <time>2016-01-11T10:19:49.607Z</time>
      </trkpt>
      <trkpt lat="43.55365" lon="3.31679">
        <ele>331</ele>
        <time>2016-01-11T10:19:55.024Z</time>
      </trkpt>
      <trkpt lat="43.55372" lon="3.3167">
        <ele>331</ele>
        <time>2016-01-11T10:20:00.024Z</time>
      </trkpt>
      <trkpt lat="43.55386" lon="3.31666">
        <ele>331</ele>
        <time>2016-01-11T10:20:05.024Z</time>
      </trkpt>
      <trkpt lat="43.55401" lon="3.31666">
        <ele>330</ele>
        <time>2016-01-11T10:20:10.024Z</time>
      </trkpt>
      <trkpt lat="43.55429" lon="3.31643">
        <ele>327.8</ele>
        <time>2016-01-11T10:20:17.358Z</time>
      </trkpt>
      <trkpt lat="43.55432" lon="3.31637">
        <ele>327.5</ele>
        <time>2016-01-11T10:20:18.472Z</time>
      </trkpt>
      <trkpt lat="43.55449" lon="3.31596">
        <ele>324.3</ele>
        <time>2016-01-11T10:20:26.337Z</time>
      </trkpt>
      <trkpt lat="43.55457" lon="3.31581">
        <ele>323.3</ele>
        <time>2016-01-11T10:20:29.416Z</time>
      </trkpt>
      <trkpt lat="43.55459" lon="3.31566">
        <ele>321</ele>
        <time>2016-01-11T10:20:31.842Z</time>
      </trkpt>
      <trkpt lat="43.5547" lon="3.31549">
        <ele>319.5</ele>
        <time>2016-01-11T10:20:35.467Z</time>
      </trkpt>
      <trkpt lat="43.55478" lon="3.31516">
        <ele>315.5</ele>
        <time>2016-01-11T10:20:41.336Z</time>
      </trkpt>
      <trkpt lat="43.55481" lon="3.31506">
        <ele>314</ele>
        <time>2016-01-11T10:20:43.133Z</time>
      </trkpt>
      <trkpt lat="43.55484" lon="3.31498">
        <ele>314</ele>
        <time>2016-01-11T10:20:44.446Z</time>
      </trkpt>
      <trkpt lat="43.55494" lon="3.31484">
        <ele>314</ele>
        <time>2016-01-11T10:20:47.777Z</time>
      </trkpt>
      <trkpt lat="43.55503" lon="3.31462">
        <ele>312.8</ele>
        <time>2016-01-11T10:20:51.802Z</time>
      </trkpt>
      <trkpt lat="43.55508" lon="3.31455">
        <ele>311.8</ele>
        <time>2016-01-11T10:20:53.495Z</time>
      </trkpt>
      <trkpt lat="43.55522" lon="3.31432">
        <ele>309</ele>
        <time>2016-01-11T10:20:58.343Z</time>
      </trkpt>
      <trkpt lat="43.55538" lon="3.31417">
        <ele>307</ele>
        <time>2016-01-11T10:21:02.781Z</time>
      </trkpt>
      <trkpt lat="43.55549" lon="3.31402">
        <ele>305.3</ele>
        <time>2016-01-11T10:21:06.273Z</time>
      </trkpt>
      <trkpt lat="43.55557" lon="3.31395">
        <ele>304.3</ele>
        <time>2016-01-11T10:21:08.423Z</time>
      </trkpt>
      <trkpt lat="43.55561" lon="3.31388">
        <ele>303.5</ele>
        <time>2016-01-11T10:21:09.926Z</time>
      </trkpt>
      <trkpt lat="43.55562" lon="3.31344">
        <ele>299.5</ele>
        <time>2016-01-11T10:21:17.058Z</time>
      </trkpt>
      <trkpt lat="43.55562" lon="3.31342">
        <ele>298</ele>
        <time>2016-01-11T10:21:17.451Z</time>
      </trkpt>
      <trkpt lat="43.55555" lon="3.313">
        <ele>298</ele>
        <time>2016-01-11T10:21:24.448Z</time>
      </trkpt>
      <trkpt lat="43.55556" lon="3.31285">
        <ele>297.8</ele>
        <time>2016-01-11T10:21:26.940Z</time>
      </trkpt>
      <trkpt lat="43.55563" lon="3.31267">
        <ele>298.3</ele>
        <time>2016-01-11T10:21:30.150Z</time>
      </trkpt>
      <trkpt lat="43.55563" lon="3.31264">
        <ele>298.5</ele>
        <time>2016-01-11T10:21:30.745Z</time>
      </trkpt>
      <trkpt lat="43.5556" lon="3.31257">
        <ele>298</ele>
        <time>2016-01-11T10:21:32.024Z</time>
      </trkpt>
      <trkpt lat="43.55552" lon="3.31246">
        <ele>297.3</ele>
        <time>2016-01-11T10:21:34.556Z</time>
      </trkpt>
      <trkpt lat="43.55538" lon="3.31209">
        <ele>297</ele>
        <time>2016-01-11T10:21:41.226Z</time>
      </trkpt>
      <trkpt lat="43.5553" lon="3.31172">
        <ele>297.5</ele>
        <time>2016-01-11T10:21:47.356Z</time>
      </trkpt>
      <trkpt lat="43.55506" lon="3.31098">
        <ele>300</ele>
        <time>2016-01-11T10:22:00.365Z</time>
      </trkpt>
      <trkpt lat="43.55488" lon="3.31062">
        <ele>297.3</ele>
        <time>2016-01-11T10:22:07.409Z</time>
      </trkpt>
      <trkpt lat="43.5547" lon="3.31021">
        <ele>293.3</ele>
        <time>2016-01-11T10:22:15.169Z</time>
      </trkpt>
      <trkpt lat="43.55468" lon="3.31012">
        <ele>292.8</ele>
        <time>2016-01-11T10:22:16.685Z</time>
      </trkpt>
      <trkpt lat="43.55465" lon="3.30993">
        <ele>292.8</ele>
        <time>2016-01-11T10:22:19.811Z</time>
      </trkpt>
      <trkpt lat="43.5546" lon="3.30913">
        <ele>291</ele>
        <time>2016-01-11T10:22:32.650Z</time>
      </trkpt>
      <trkpt lat="43.55454" lon="3.30896">
        <ele>291</ele>
        <time>2016-01-11T10:22:35.690Z</time>
      </trkpt>
      <trkpt lat="43.55455" lon="3.30886">
        <ele>291.5</ele>
        <time>2016-01-11T10:22:37.424Z</time>
      </trkpt>
      <trkpt lat="43.55455" lon="3.30874">
        <ele>291.8</ele>
        <time>2016-01-11T10:22:39.263Z</time>
      </trkpt>
      <trkpt lat="43.55453" lon="3.30871">
        <ele>291.5</ele>
        <time>2016-01-11T10:22:39.969Z</time>
      </trkpt>
      <trkpt lat="43.55433" lon="3.30859">
        <ele>291</ele>
        <time>2016-01-11T10:22:44.692Z</time>
      </trkpt>
      <trkpt lat="43.55417" lon="3.30849">
        <ele>291</ele>
        <time>2016-01-11T10:22:49.692Z</time>
      </trkpt>
      <trkpt lat="43.55409" lon="3.30848">
        <ele>290</ele>
        <time>2016-01-11T10:22:54.692Z</time>
      </trkpt>
      <trkpt lat="43.55396" lon="3.30856">
        <ele>287</ele>
        <time>2016-01-11T10:22:59.692Z</time>
      </trkpt>
      <trkpt lat="43.55368" lon="3.30847">
        <ele>284</ele>
        <time>2016-01-11T10:23:04.692Z</time>
      </trkpt>
      <trkpt lat="43.55328" lon="3.30852">
        <ele>276.8</ele>
        <time>2016-01-11T10:23:11.528Z</time>
      </trkpt>
      <trkpt lat="43.55322" lon="3.30846">
        <ele>276.3</ele>
        <time>2016-01-11T10:23:12.624Z</time>
      </trkpt>
      <trkpt lat="43.55318" lon="3.30826">
        <ele>277.3</ele>
        <time>2016-01-11T10:23:15.130Z</time>
      </trkpt>
      <trkpt lat="43.55314" lon="3.30803">
        <ele>277.8</ele>
        <time>2016-01-11T10:23:18.091Z</time>
      </trkpt>
      <trkpt lat="43.55311" lon="3.30794">
        <ele>276.5</ele>
        <time>2016-01-11T10:23:19.265Z</time>
      </trkpt>
      <trkpt lat="43.55306" lon="3.3078">
        <ele>276.5</ele>
        <time>2016-01-11T10:23:21.205Z</time>
      </trkpt>
      <trkpt lat="43.55303" lon="3.30758">
        <ele>276.8</ele>
        <time>2016-01-11T10:23:23.885Z</time>
      </trkpt>
      <trkpt lat="43.55298" lon="3.30736">
        <ele>272</ele>
        <time>2016-01-11T10:23:26.698Z</time>
      </trkpt>
      <trkpt lat="43.55298" lon="3.30728">
        <ele>269.8</ele>
        <time>2016-01-11T10:23:27.687Z</time>
      </trkpt>
      <trkpt lat="43.55299" lon="3.30725">
        <ele>269.5</ele>
        <time>2016-01-11T10:23:28.082Z</time>
      </trkpt>
      <trkpt lat="43.553" lon="3.30724">
        <ele>269.5</ele>
        <time>2016-01-11T10:23:28.280Z</time>
      </trkpt>
      <trkpt lat="43.55326" lon="3.30721">
        <ele>276.5</ele>
        <time>2016-01-11T10:23:35.096Z</time>
      </trkpt>
      <trkpt lat="43.55337" lon="3.30714">
        <ele>277.3</ele>
        <time>2016-01-11T10:23:38.355Z</time>
      </trkpt>
      <trkpt lat="43.55342" lon="3.30712">
        <ele>277.3</ele>
        <time>2016-01-11T10:23:39.575Z</time>
      </trkpt>
      <trkpt lat="43.55376" lon="3.30688">
        <ele>277</ele>
        <time>2016-01-11T10:23:49.771Z</time>
      </trkpt>
      <trkpt lat="43.55405" lon="3.30663">
        <ele>277</ele>
        <time>2016-01-11T10:23:58.643Z</time>
      </trkpt>
      <trkpt lat="43.55405" lon="3.30654">
        <ele>274</ele>
        <time>2016-01-11T10:24:00.265Z</time>
      </trkpt>
      <trkpt lat="43.5538" lon="3.30665">
        <ele>272</ele>
        <time>2016-01-11T10:24:05.265Z</time>
      </trkpt>
      <trkpt lat="43.5534" lon="3.30661">
        <ele>261.8</ele>
        <time>2016-01-11T10:24:11.422Z</time>
      </trkpt>
      <trkpt lat="43.55338" lon="3.30656">
        <ele>259.8</ele>
        <time>2016-01-11T10:24:12.054Z</time>
      </trkpt>
      <trkpt lat="43.5534" lon="3.30652">
        <ele>259</ele>
        <time>2016-01-11T10:24:12.568Z</time>
      </trkpt>
      <trkpt lat="43.55357" lon="3.30639">
        <ele>258.8</ele>
        <time>2016-01-11T10:24:15.572Z</time>
      </trkpt>
      <trkpt lat="43.55374" lon="3.30623">
        <ele>258</ele>
        <time>2016-01-11T10:24:18.784Z</time>
      </trkpt>
      <trkpt lat="43.55384" lon="3.30615">
        <ele>258</ele>
        <time>2016-01-11T10:24:20.603Z</time>
      </trkpt>
      <trkpt lat="43.55411" lon="3.30577">
        <ele>253</ele>
        <time>2016-01-11T10:24:26.470Z</time>
      </trkpt>
      <trkpt lat="43.55412" lon="3.30573">
        <ele>250.5</ele>
        <time>2016-01-11T10:24:26.922Z</time>
      </trkpt>
      <trkpt lat="43.55421" lon="3.30544">
        <ele>248</ele>
        <time>2016-01-11T10:24:30.441Z</time>
      </trkpt>
      <trkpt lat="43.55426" lon="3.30526">
        <ele>246</ele>
        <time>2016-01-11T10:24:35.441Z</time>
      </trkpt>
      <trkpt lat="43.55438" lon="3.30509">
        <ele>246</ele>
        <time>2016-01-11T10:24:40.441Z</time>
      </trkpt>
      <trkpt lat="43.55433" lon="3.30503">
        <ele>243</ele>
        <time>2016-01-11T10:24:45.441Z</time>
      </trkpt>
      <trkpt lat="43.55414" lon="3.30501">
        <ele>237</ele>
        <time>2016-01-11T10:24:50.441Z</time>
      </trkpt>
      <trkpt lat="43.55418" lon="3.30495">
        <ele>236</ele>
        <time>2016-01-11T10:24:55.441Z</time>
      </trkpt>
      <trkpt lat="43.55422" lon="3.30489">
        <ele>236</ele>
        <time>2016-01-11T10:25:00.441Z</time>
      </trkpt>
      <trkpt lat="43.55438" lon="3.30467">
        <ele>236</ele>
        <time>2016-01-11T10:25:05.441Z</time>
      </trkpt>
      <trkpt lat="43.55449" lon="3.30459">
        <ele>237</ele>
        <time>2016-01-11T10:25:10.441Z</time>
      </trkpt>
      <trkpt lat="43.55454" lon="3.30451">
        <ele>236</ele>
        <time>2016-01-11T10:25:15.441Z</time>
      </trkpt>
      <trkpt lat="43.55455" lon="3.30443">
        <ele>234</ele>
        <time>2016-01-11T10:25:20.441Z</time>
      </trkpt>
      <trkpt lat="43.55449" lon="3.30439">
        <ele>232</ele>
        <time>2016-01-11T10:25:25.441Z</time>
      </trkpt>
      <trkpt lat="43.5544" lon="3.30443">
        <ele>230</ele>
        <time>2016-01-11T10:25:30.441Z</time>
      </trkpt>
      <trkpt lat="43.55432" lon="3.30441">
        <ele>227</ele>
        <time>2016-01-11T10:25:35.441Z</time>
      </trkpt>
      <trkpt lat="43.55434" lon="3.30432">
        <ele>225.5</ele>
        <time>2016-01-11T10:25:37.834Z</time>
      </trkpt>
      <trkpt lat="43.55466" lon="3.30381">
        <ele>220.5</ele>
        <time>2016-01-11T10:25:54.496Z</time>
      </trkpt>
      <trkpt lat="43.55482" lon="3.30364">
        <ele>219.8</ele>
        <time>2016-01-11T10:26:01.529Z</time>
      </trkpt>
      <trkpt lat="43.55486" lon="3.30358">
        <ele>217.5</ele>
        <time>2016-01-11T10:26:03.420Z</time>
      </trkpt>
      <trkpt lat="43.55491" lon="3.30351">
        <ele>217.5</ele>
        <time>2016-01-11T10:26:05.778Z</time>
      </trkpt>
      <trkpt lat="43.5551" lon="3.30334">
        <ele>214.5</ele>
        <time>2016-01-11T10:26:13.628Z</time>
      </trkpt>
      <trkpt lat="43.5552" lon="3.30332">
        <ele>214.5</ele>
        <time>2016-01-11T10:26:17.210Z</time>
      </trkpt>
      <trkpt lat="43.55533" lon="3.30335">
        <ele>216</ele>
        <time>2016-01-11T10:26:21.722Z</time>
      </trkpt>
      <trkpt lat="43.55534" lon="3.30336">
        <ele>216</ele>
        <time>2016-01-11T10:26:22.143Z</time>
      </trkpt>
      <trkpt lat="43.55543" lon="3.30344">
        <ele>218.5</ele>
        <time>2016-01-11T10:26:24.358Z</time>
      </trkpt>
      <trkpt lat="43.55558" lon="3.30372">
        <ele>224.8</ele>
        <time>2016-01-11T10:26:29.823Z</time>
      </trkpt>
      <trkpt lat="43.55565" lon="3.30381">
        <ele>229</ele>
        <time>2016-01-11T10:26:31.832Z</time>
      </trkpt>
      <trkpt lat="43.55577" lon="3.30397">
        <ele>229</ele>
        <time>2016-01-11T10:26:35.468Z</time>
      </trkpt>
      <trkpt lat="43.55596" lon="3.30418">
        <ele>235.3</ele>
        <time>2016-01-11T10:26:40.676Z</time>
      </trkpt>
      <trkpt lat="43.55612" lon="3.30439">
        <ele>242.8</ele>
        <time>2016-01-11T10:26:45.594Z</time>
      </trkpt>
      <trkpt lat="43.55615" lon="3.30444">
        <ele>246.8</ele>
        <time>2016-01-11T10:26:46.659Z</time>
      </trkpt>
      <trkpt lat="43.55623" lon="3.30458">
        <ele>246.8</ele>
        <time>2016-01-11T10:26:49.271Z</time>
      </trkpt>
      <trkpt lat="43.55624" lon="3.30464">
        <ele>247.5</ele>
        <time>2016-01-11T10:26:50.634Z</time>
      </trkpt>
      <trkpt lat="43.55626" lon="3.30483">
        <ele>249.8</ele>
        <time>2016-01-11T10:26:54.758Z</time>
      </trkpt>
      <trkpt lat="43.55633" lon="3.30514">
        <ele>252.5</ele>
        <time>2016-01-11T10:27:01.863Z</time>
      </trkpt>
      <trkpt lat="43.55637" lon="3.30519">
        <ele>252.8</ele>
        <time>2016-01-11T10:27:03.448Z</time>
      </trkpt>
      <trkpt lat="43.55643" lon="3.30532">
        <ele>253.5</ele>
        <time>2016-01-11T10:27:06.737Z</time>
      </trkpt>
      <trkpt lat="43.55648" lon="3.30538">
        <ele>253.5</ele>
        <time>2016-01-11T10:27:08.744Z</time>
      </trkpt>
      <trkpt lat="43.5566" lon="3.30567">
        <ele>253.5</ele>
        <time>2016-01-11T10:27:15.877Z</time>
      </trkpt>
      <trkpt lat="43.55663" lon="3.30582">
        <ele>253.5</ele>
        <time>2016-01-11T10:27:19.309Z</time>
      </trkpt>
      <trkpt lat="43.55666" lon="3.30589">
        <ele>253.3</ele>
        <time>2016-01-11T10:27:21.004Z</time>
      </trkpt>
      <trkpt lat="43.55666" lon="3.30602">
        <ele>253.5</ele>
        <time>2016-01-11T10:27:23.733Z</time>
      </trkpt>
      <trkpt lat="43.55664" lon="3.30614">
        <ele>254.5</ele>
        <time>2016-01-11T10:27:26.328Z</time>
      </trkpt>
      <trkpt lat="43.55664" lon="3.30619">
        <ele>254.5</ele>
        <time>2016-01-11T10:27:27.522Z</time>
      </trkpt>
      <trkpt lat="43.55662" lon="3.30629">
        <ele>255.3</ele>
        <time>2016-01-11T10:27:29.685Z</time>
      </trkpt>
      <trkpt lat="43.55664" lon="3.30641">
        <ele>255</ele>
        <time>2016-01-11T10:27:32.351Z</time>
      </trkpt>
      <trkpt lat="43.55666" lon="3.30651">
        <ele>254.5</ele>
        <time>2016-01-11T10:27:34.563Z</time>
      </trkpt>
      <trkpt lat="43.5568" lon="3.30668">
        <ele>257</ele>
        <time>2016-01-11T10:27:40.032Z</time>
      </trkpt>
      <trkpt lat="43.55685" lon="3.30676">
        <ele>258.3</ele>
        <time>2016-01-11T10:27:42.334Z</time>
      </trkpt>
      <trkpt lat="43.55688" lon="3.30679">
        <ele>258.8</ele>
        <time>2016-01-11T10:27:43.408Z</time>
      </trkpt>
      <trkpt lat="43.5569" lon="3.30683">
        <ele>259</ele>
        <time>2016-01-11T10:27:44.453Z</time>
      </trkpt>
      <trkpt lat="43.55693" lon="3.30688">
        <ele>259.8</ele>
        <time>2016-01-11T10:27:45.890Z</time>
      </trkpt>
      <trkpt lat="43.55701" lon="3.30696">
        <ele>260.8</ele>
        <time>2016-01-11T10:27:49.134Z</time>
      </trkpt>
      <trkpt lat="43.55719" lon="3.3071">
        <ele>262.5</ele>
        <time>2016-01-11T10:27:55.609Z</time>
      </trkpt>
      <trkpt lat="43.55723" lon="3.30711">
        <ele>262.8</ele>
        <time>2016-01-11T10:27:57.092Z</time>
      </trkpt>
      <trkpt lat="43.55728" lon="3.30711">
        <ele>263</ele>
        <time>2016-01-11T10:27:58.674Z</time>
      </trkpt>
      <trkpt lat="43.55738" lon="3.30719">
        <ele>263.5</ele>
        <time>2016-01-11T10:28:02.403Z</time>
      </trkpt>
      <trkpt lat="43.55741" lon="3.3072">
        <ele>263.5</ele>
        <time>2016-01-11T10:28:03.280Z</time>
      </trkpt>
      <trkpt lat="43.55742" lon="3.30725">
        <ele>263.3</ele>
        <time>2016-01-11T10:28:04.487Z</time>
      </trkpt>
      <trkpt lat="43.55745" lon="3.30727">
        <ele>263.3</ele>
        <time>2016-01-11T10:28:05.471Z</time>
      </trkpt>
      <trkpt lat="43.55749" lon="3.30728">
        <ele>263.3</ele>
        <time>2016-01-11T10:28:06.703Z</time>
      </trkpt>
      <trkpt lat="43.55752" lon="3.30734">
        <ele>263.3</ele>
        <time>2016-01-11T10:28:08.488Z</time>
      </trkpt>
      <trkpt lat="43.55764" lon="3.30742">
        <ele>264</ele>
        <time>2016-01-11T10:28:12.691Z</time>
      </trkpt>
      <trkpt lat="43.55768" lon="3.30743">
        <ele>264.5</ele>
        <time>2016-01-11T10:28:13.975Z</time>
      </trkpt>
      <trkpt lat="43.55773" lon="3.30748">
        <ele>264.8</ele>
        <time>2016-01-11T10:28:16.062Z</time>
      </trkpt>
      <trkpt lat="43.55779" lon="3.3075">
        <ele>265.3</ele>
        <time>2016-01-11T10:28:17.928Z</time>
      </trkpt>
      <trkpt lat="43.55785" lon="3.30755">
        <ele>266.5</ele>
        <time>2016-01-11T10:28:20.307Z</time>
      </trkpt>
      <trkpt lat="43.55792" lon="3.30758">
        <ele>267.5</ele>
        <time>2016-01-11T10:28:22.443Z</time>
      </trkpt>
      <trkpt lat="43.55795" lon="3.30758">
        <ele>268.3</ele>
        <time>2016-01-11T10:28:23.479Z</time>
      </trkpt>
      <trkpt lat="43.55798" lon="3.30759">
        <ele>268.3</ele>
        <time>2016-01-11T10:28:24.422Z</time>
      </trkpt>
      <trkpt lat="43.5581" lon="3.30758">
        <ele>269.3</ele>
        <time>2016-01-11T10:28:27.341Z</time>
      </trkpt>
      <trkpt lat="43.55813" lon="3.30756">
        <ele>269.5</ele>
        <time>2016-01-11T10:28:29.201Z</time>
      </trkpt>
      <trkpt lat="43.55816" lon="3.30755">
        <ele>269.8</ele>
        <time>2016-01-11T10:28:30.915Z</time>
      </trkpt>
      <trkpt lat="43.55822" lon="3.30748">
        <ele>270.5</ele>
        <time>2016-01-11T10:28:35.190Z</time>
      </trkpt>
      <trkpt lat="43.55826" lon="3.30747">
        <ele>271.3</ele>
        <time>2016-01-11T10:28:37.931Z</time>
      </trkpt>
      <trkpt lat="43.55835" lon="3.30742">
        <ele>272</ele>
        <time>2016-01-11T10:28:43.577Z</time>
      </trkpt>
      <trkpt lat="43.55844" lon="3.30742">
        <ele>269.8</ele>
        <time>2016-01-11T10:28:48.399Z</time>
      </trkpt>
      <trkpt lat="43.55847" lon="3.30753">
        <ele>268.8</ele>
        <time>2016-01-11T10:28:52.932Z</time>
      </trkpt>
      <trkpt lat="43.55844" lon="3.30761">
        <ele>269</ele>
        <time>2016-01-11T10:28:56.732Z</time>
      </trkpt>
      <trkpt lat="43.55845" lon="3.30766">
        <ele>268.8</ele>
        <time>2016-01-11T10:28:58.568Z</time>
      </trkpt>
      <trkpt lat="43.5585" lon="3.30768">
        <ele>267.8</ele>
        <time>2016-01-11T10:29:01.271Z</time>
      </trkpt>
      <trkpt lat="43.55854" lon="3.30771">
        <ele>267</ele>
        <time>2016-01-11T10:29:03.869Z</time>
      </trkpt>
      <trkpt lat="43.55854" lon="3.30792">
        <ele>266.8</ele>
        <time>2016-01-11T10:29:08.533Z</time>
      </trkpt>
      <trkpt lat="43.55858" lon="3.30807">
        <ele>266</ele>
        <time>2016-01-11T10:29:12.260Z</time>
      </trkpt>
      <trkpt lat="43.55858" lon="3.30814">
        <ele>266</ele>
        <time>2016-01-11T10:29:13.855Z</time>
      </trkpt>
      <trkpt lat="43.55854" lon="3.30835">
        <ele>266.8</ele>
        <time>2016-01-11T10:29:18.811Z</time>
      </trkpt>
      <trkpt lat="43.55852" lon="3.30848">
        <ele>268</ele>
        <time>2016-01-11T10:29:21.706Z</time>
      </trkpt>
      <trkpt lat="43.55853" lon="3.30856">
        <ele>268.8</ele>
        <time>2016-01-11T10:29:23.482Z</time>
      </trkpt>
      <trkpt lat="43.55855" lon="3.30863">
        <ele>268.8</ele>
        <time>2016-01-11T10:29:25.198Z</time>
      </trkpt>
      <trkpt lat="43.5586" lon="3.3087">
        <ele>268.5</ele>
        <time>2016-01-11T10:29:27.415Z</time>
      </trkpt>
      <trkpt lat="43.55865" lon="3.3087">
        <ele>267.5</ele>
        <time>2016-01-11T10:29:29.006Z</time>
      </trkpt>
      <trkpt lat="43.55873" lon="3.30874">
        <ele>266.8</ele>
        <time>2016-01-11T10:29:31.514Z</time>
      </trkpt>
      <trkpt lat="43.55881" lon="3.30881">
        <ele>266</ele>
        <time>2016-01-11T10:29:34.286Z</time>
      </trkpt>
      <trkpt lat="43.55886" lon="3.30893">
        <ele>266</ele>
        <time>2016-01-11T10:29:37.396Z</time>
      </trkpt>
      <trkpt lat="43.55897" lon="3.30907">
        <ele>265.3</ele>
        <time>2016-01-11T10:29:41.774Z</time>
      </trkpt>
      <trkpt lat="43.55906" lon="3.30921">
        <ele>265.3</ele>
        <time>2016-01-11T10:29:46.008Z</time>
      </trkpt>
      <trkpt lat="43.55924" lon="3.30936">
        <ele>266.8</ele>
        <time>2016-01-11T10:29:52.114Z</time>
      </trkpt>
      <trkpt lat="43.55933" lon="3.3094">
        <ele>267.8</ele>
        <time>2016-01-11T10:29:55.117Z</time>
      </trkpt>
      <trkpt lat="43.5594" lon="3.30947">
        <ele>269.3</ele>
        <time>2016-01-11T10:29:57.590Z</time>
      </trkpt>
      <trkpt lat="43.55941" lon="3.3096">
        <ele>271</ele>
        <time>2016-01-11T10:30:00.308Z</time>
      </trkpt>
      <trkpt lat="43.55945" lon="3.30964">
        <ele>271.8</ele>
        <time>2016-01-11T10:30:01.789Z</time>
      </trkpt>
      <trkpt lat="43.55952" lon="3.30968">
        <ele>272.3</ele>
        <time>2016-01-11T10:30:04.120Z</time>
      </trkpt>
      <trkpt lat="43.55953" lon="3.30973">
        <ele>273</ele>
        <time>2016-01-11T10:30:05.369Z</time>
      </trkpt>
      <trkpt lat="43.5596" lon="3.30978">
        <ele>273.5</ele>
        <time>2016-01-11T10:30:07.651Z</time>
      </trkpt>
      <trkpt lat="43.55965" lon="3.30996">
        <ele>275.5</ele>
        <time>2016-01-11T10:30:11.755Z</time>
      </trkpt>
      <trkpt lat="43.55973" lon="3.31005">
        <ele>276</ele>
        <time>2016-01-11T10:30:14.845Z</time>
      </trkpt>
      <trkpt lat="43.55978" lon="3.31014">
        <ele>275.8</ele>
        <time>2016-01-11T10:30:17.353Z</time>
      </trkpt>
      <trkpt lat="43.55984" lon="3.31017">
        <ele>275.3</ele>
        <time>2016-01-11T10:30:19.472Z</time>
      </trkpt>
      <trkpt lat="43.55989" lon="3.31031">
        <ele>274.8</ele>
        <time>2016-01-11T10:30:22.706Z</time>
      </trkpt>
      <trkpt lat="43.55992" lon="3.31046">
        <ele>274.3</ele>
        <time>2016-01-11T10:30:26.132Z</time>
      </trkpt>
      <trkpt lat="43.55995" lon="3.31046">
        <ele>271.5</ele>
        <time>2016-01-11T10:30:27.149Z</time>
      </trkpt>
      <trkpt lat="43.56049" lon="3.31044">
        <ele>271.5</ele>
        <time>2016-01-11T10:30:43.300Z</time>
      </trkpt>
      <trkpt lat="43.56067" lon="3.31033">
        <ele>272.3</ele>
        <time>2016-01-11T10:30:48.931Z</time>
      </trkpt>
      <trkpt lat="43.56071" lon="3.31031">
        <ele>272.3</ele>
        <time>2016-01-11T10:30:50.044Z</time>
      </trkpt>
      <trkpt lat="43.5609" lon="3.31028">
        <ele>273.3</ele>
        <time>2016-01-11T10:30:55.629Z</time>
      </trkpt>
      <trkpt lat="43.56113" lon="3.31037">
        <ele>276.5</ele>
        <time>2016-01-11T10:31:02.414Z</time>
      </trkpt>
      <trkpt lat="43.56141" lon="3.31048">
        <ele>276.5</ele>
        <time>2016-01-11T10:31:10.875Z</time>
      </trkpt>
      <trkpt lat="43.56153" lon="3.31051">
        <ele>277.8</ele>
        <time>2016-01-11T10:31:13.306Z</time>
      </trkpt>
      <trkpt lat="43.56162" lon="3.31058">
        <ele>278</ele>
        <time>2016-01-11T10:31:15.290Z</time>
      </trkpt>
      <trkpt lat="43.56169" lon="3.31069">
        <ele>277.8</ele>
        <time>2016-01-11T10:31:17.362Z</time>
      </trkpt>
      <trkpt lat="43.56176" lon="3.31095">
        <ele>275.3</ele>
        <time>2016-01-11T10:31:21.301Z</time>
      </trkpt>
      <trkpt lat="43.56183" lon="3.31105">
        <ele>274.8</ele>
        <time>2016-01-11T10:31:23.255Z</time>
      </trkpt>
      <trkpt lat="43.56193" lon="3.3112">
        <ele>274.8</ele>
        <time>2016-01-11T10:31:26.272Z</time>
      </trkpt>
      <trkpt lat="43.56204" lon="3.31136">
        <ele>275</ele>
        <time>2016-01-11T10:31:29.341Z</time>
      </trkpt>
      <trkpt lat="43.56213" lon="3.31154">
        <ele>275</ele>
        <time>2016-01-11T10:31:32.391Z</time>
      </trkpt>
      <trkpt lat="43.56223" lon="3.31171">
        <ele>275.8</ele>
        <time>2016-01-11T10:31:35.652Z</time>
      </trkpt>
      <trkpt lat="43.56236" lon="3.31202">
        <ele>276</ele>
        <time>2016-01-11T10:31:40.663Z</time>
      </trkpt>
      <trkpt lat="43.56244" lon="3.31214">
        <ele>277</ele>
        <time>2016-01-11T10:31:42.978Z</time>
      </trkpt>
      <trkpt lat="43.56258" lon="3.31231">
        <ele>277.5</ele>
        <time>2016-01-11T10:31:46.623Z</time>
      </trkpt>
      <trkpt lat="43.56268" lon="3.31241">
        <ele>277.5</ele>
        <time>2016-01-11T10:31:48.205Z</time>
      </trkpt>
      <trkpt lat="43.56279" lon="3.31254">
        <ele>277.8</ele>
        <time>2016-01-11T10:31:50.001Z</time>
      </trkpt>
      <trkpt lat="43.56292" lon="3.31265">
        <ele>278.8</ele>
        <time>2016-01-11T10:31:51.845Z</time>
      </trkpt>
      <trkpt lat="43.56304" lon="3.31271">
        <ele>283</ele>
        <time>2016-01-11T10:31:53.471Z</time>
      </trkpt>
      <trkpt lat="43.56328" lon="3.31284">
        <ele>283</ele>
        <time>2016-01-11T10:31:56.744Z</time>
      </trkpt>
      <trkpt lat="43.56343" lon="3.313">
        <ele>282.5</ele>
        <time>2016-01-11T10:31:59.100Z</time>
      </trkpt>
      <trkpt lat="43.5635" lon="3.31311">
        <ele>281.3</ele>
        <time>2016-01-11T10:32:00.392Z</time>
      </trkpt>
      <trkpt lat="43.56358" lon="3.31322">
        <ele>281.3</ele>
        <time>2016-01-11T10:32:01.736Z</time>
      </trkpt>
      <trkpt lat="43.56364" lon="3.31326">
        <ele>280.8</ele>
        <time>2016-01-11T10:32:02.586Z</time>
      </trkpt>
      <trkpt lat="43.56387" lon="3.3134">
        <ele>278.5</ele>
        <time>2016-01-11T10:32:05.492Z</time>
      </trkpt>
      <trkpt lat="43.5641" lon="3.31363">
        <ele>277.5</ele>
        <time>2016-01-11T10:32:08.907Z</time>
      </trkpt>
      <trkpt lat="43.56426" lon="3.3137">
        <ele>277</ele>
        <time>2016-01-11T10:32:10.823Z</time>
      </trkpt>
      <trkpt lat="43.56452" lon="3.31375">
        <ele>275.8</ele>
        <time>2016-01-11T10:32:13.886Z</time>
      </trkpt>
      <trkpt lat="43.56461" lon="3.31379">
        <ele>275.5</ele>
        <time>2016-01-11T10:32:15.057Z</time>
      </trkpt>
      <trkpt lat="43.56474" lon="3.3138">
        <ele>274.8</ele>
        <time>2016-01-11T10:32:16.551Z</time>
      </trkpt>
      <trkpt lat="43.56547" lon="3.31393">
        <ele>274.8</ele>
        <time>2016-01-11T10:32:25.233Z</time>
      </trkpt>
      <trkpt lat="43.56552" lon="3.31395">
        <ele>276.5</ele>
        <time>2016-01-11T10:32:25.806Z</time>
      </trkpt>
      <trkpt lat="43.56578" lon="3.31401">
        <ele>276.5</ele>
        <time>2016-01-11T10:32:28.928Z</time>
      </trkpt>
      <trkpt lat="43.56625" lon="3.31417">
        <ele>281.5</ele>
        <time>2016-01-11T10:32:34.545Z</time>
      </trkpt>
      <trkpt lat="43.56627" lon="3.31417">
        <ele>281.5</ele>
        <time>2016-01-11T10:32:34.787Z</time>
      </trkpt>
      <trkpt lat="43.56632" lon="3.31418">
        <ele>281.8</ele>
        <time>2016-01-11T10:32:36.096Z</time>
      </trkpt>
      <trkpt lat="43.56639" lon="3.31417">
        <ele>282.5</ele>
        <time>2016-01-11T10:32:37.705Z</time>
      </trkpt>
      <trkpt lat="43.56649" lon="3.31408">
        <ele>283</ele>
        <time>2016-01-11T10:32:40.405Z</time>
      </trkpt>
      <trkpt lat="43.56662" lon="3.31401">
        <ele>284</ele>
        <time>2016-01-11T10:32:43.639Z</time>
      </trkpt>
      <trkpt lat="43.56682" lon="3.31401">
        <ele>286</ele>
        <time>2016-01-11T10:32:48.398Z</time>
      </trkpt>
      <trkpt lat="43.56703" lon="3.31399">
        <ele>288</ele>
        <time>2016-01-11T10:32:53.257Z</time>
      </trkpt>
      <trkpt lat="43.56724" lon="3.31401">
        <ele>290</ele>
        <time>2016-01-11T10:32:58.051Z</time>
      </trkpt>
      <trkpt lat="43.56754" lon="3.31406">
        <ele>293.3</ele>
        <time>2016-01-11T10:33:05.153Z</time>
      </trkpt>
      <trkpt lat="43.56764" lon="3.31406">
        <ele>294.5</ele>
        <time>2016-01-11T10:33:07.351Z</time>
      </trkpt>
      <trkpt lat="43.56781" lon="3.31395">
        <ele>295.8</ele>
        <time>2016-01-11T10:33:11.668Z</time>
      </trkpt>
      <trkpt lat="43.56806" lon="3.31382">
        <ele>297</ele>
        <time>2016-01-11T10:33:17.905Z</time>
      </trkpt>
      <trkpt lat="43.56821" lon="3.3138">
        <ele>297.8</ele>
        <time>2016-01-11T10:33:21.304Z</time>
      </trkpt>
      <trkpt lat="43.56837" lon="3.3138">
        <ele>298.8</ele>
        <time>2016-01-11T10:33:24.908Z</time>
      </trkpt>
      <trkpt lat="43.56843" lon="3.31382">
        <ele>299</ele>
        <time>2016-01-11T10:33:26.417Z</time>
      </trkpt>
      <trkpt lat="43.56874" lon="3.31377">
        <ele>297.8</ele>
        <time>2016-01-11T10:33:33.559Z</time>
      </trkpt>
      <trkpt lat="43.56883" lon="3.31376">
        <ele>297.3</ele>
        <time>2016-01-11T10:33:35.663Z</time>
      </trkpt>
      <trkpt lat="43.56893" lon="3.31376">
        <ele>297.3</ele>
        <time>2016-01-11T10:33:38.136Z</time>
      </trkpt>
      <trkpt lat="43.56918" lon="3.31368">
        <ele>295.8</ele>
        <time>2016-01-11T10:33:43.552Z</time>
      </trkpt>
      <trkpt lat="43.56931" lon="3.31363">
        <ele>295.8</ele>
        <time>2016-01-11T10:33:46.213Z</time>
      </trkpt>
      <trkpt lat="43.56941" lon="3.31355">
        <ele>295.5</ele>
        <time>2016-01-11T10:33:48.797Z</time>
      </trkpt>
      <trkpt lat="43.56952" lon="3.31344">
        <ele>295.5</ele>
        <time>2016-01-11T10:33:51.510Z</time>
      </trkpt>
      <trkpt lat="43.56983" lon="3.31319">
        <ele>296</ele>
        <time>2016-01-11T10:33:59.136Z</time>
      </trkpt>
      <trkpt lat="43.56995" lon="3.31306">
        <ele>295.8</ele>
        <time>2016-01-11T10:34:02.384Z</time>
      </trkpt>
      <trkpt lat="43.57001" lon="3.31303">
        <ele>295.8</ele>
        <time>2016-01-11T10:34:03.707Z</time>
      </trkpt>
      <trkpt lat="43.57013" lon="3.31298">
        <ele>296.8</ele>
        <time>2016-01-11T10:34:06.396Z</time>
      </trkpt>
      <trkpt lat="43.57029" lon="3.31294">
        <ele>298.3</ele>
        <time>2016-01-11T10:34:09.825Z</time>
      </trkpt>
      <trkpt lat="43.57034" lon="3.31294">
        <ele>298.8</ele>
        <time>2016-01-11T10:34:10.938Z</time>
      </trkpt>
      <trkpt lat="43.57042" lon="3.31295">
        <ele>300</ele>
        <time>2016-01-11T10:34:12.544Z</time>
      </trkpt>
      <trkpt lat="43.5705" lon="3.31295">
        <ele>301.3</ele>
        <time>2016-01-11T10:34:14.362Z</time>
      </trkpt>
      <trkpt lat="43.57061" lon="3.31291">
        <ele>302.3</ele>
        <time>2016-01-11T10:34:16.700Z</time>
      </trkpt>
      <trkpt lat="43.57073" lon="3.31289">
        <ele>303.5</ele>
        <time>2016-01-11T10:34:19.263Z</time>
      </trkpt>
      <trkpt lat="43.57083" lon="3.31306">
        <ele>308</ele>
        <time>2016-01-11T10:34:22.670Z</time>
      </trkpt>
      <trkpt lat="43.57087" lon="3.31312">
        <ele>308</ele>
        <time>2016-01-11T10:34:23.839Z</time>
      </trkpt>
      <trkpt lat="43.57101" lon="3.31333">
        <ele>312.5</ele>
        <time>2016-01-11T10:34:28.326Z</time>
      </trkpt>
      <trkpt lat="43.57127" lon="3.31359">
        <ele>313.5</ele>
        <time>2016-01-11T10:34:35.103Z</time>
      </trkpt>
      <trkpt lat="43.5714" lon="3.31368">
        <ele>314.8</ele>
        <time>2016-01-11T10:34:38.440Z</time>
      </trkpt>
      <trkpt lat="43.57177" lon="3.31391">
        <ele>317.5</ele>
        <time>2016-01-11T10:34:47.052Z</time>
      </trkpt>
      <trkpt lat="43.57181" lon="3.31392">
        <ele>319</ele>
        <time>2016-01-11T10:34:47.831Z</time>
      </trkpt>
      <trkpt lat="43.57206" lon="3.31398">
        <ele>319</ele>
        <time>2016-01-11T10:34:53.302Z</time>
      </trkpt>
      <trkpt lat="43.57247" lon="3.31399">
        <ele>322</ele>
        <time>2016-01-11T10:35:01.344Z</time>
      </trkpt>
      <trkpt lat="43.57263" lon="3.31399">
        <ele>323</ele>
        <time>2016-01-11T10:35:04.405Z</time>
      </trkpt>
      <trkpt lat="43.57272" lon="3.31401">
        <ele>323.3</ele>
        <time>2016-01-11T10:35:06.128Z</time>
      </trkpt>
      <trkpt lat="43.57283" lon="3.31397">
        <ele>326.5</ele>
        <time>2016-01-11T10:35:08.312Z</time>
      </trkpt>
      <trkpt lat="43.57305" lon="3.31391">
        <ele>326.5</ele>
        <time>2016-01-11T10:35:12.712Z</time>
      </trkpt>
      <trkpt lat="43.57358" lon="3.31398">
        <ele>330.3</ele>
        <time>2016-01-11T10:35:23.032Z</time>
      </trkpt>
      <trkpt lat="43.57369" lon="3.31404">
        <ele>331.3</ele>
        <time>2016-01-11T10:35:25.249Z</time>
      </trkpt>
      <trkpt lat="43.57369" lon="3.31403">
        <ele>331.5</ele>
        <time>2016-01-11T10:35:25.351Z</time>
      </trkpt>
      <trkpt lat="43.57369" lon="3.31404">
        <ele>331.3</ele>
        <time>2016-01-11T10:35:25.453Z</time>
      </trkpt>
      <trkpt lat="43.57374" lon="3.31423">
        <ele>331.8</ele>
        <time>2016-01-11T10:35:29.933Z</time>
      </trkpt>
      <trkpt lat="43.57386" lon="3.31448">
        <ele>335</ele>
        <time>2016-01-11T10:35:36.293Z</time>
      </trkpt>
      <trkpt lat="43.57388" lon="3.31453">
        <ele>335</ele>
        <time>2016-01-11T10:35:37.644Z</time>
      </trkpt>
      <trkpt lat="43.57393" lon="3.31471">
        <ele>336.8</ele>
        <time>2016-01-11T10:35:41.889Z</time>
      </trkpt>
      <trkpt lat="43.57391" lon="3.31482">
        <ele>336.5</ele>
        <time>2016-01-11T10:35:44.212Z</time>
      </trkpt>
      <trkpt lat="43.57392" lon="3.31493">
        <ele>337</ele>
        <time>2016-01-11T10:35:46.663Z</time>
      </trkpt>
      <trkpt lat="43.57394" lon="3.31503">
        <ele>338.3</ele>
        <time>2016-01-11T10:35:48.834Z</time>
      </trkpt>
      <trkpt lat="43.57398" lon="3.31509">
        <ele>340</ele>
        <time>2016-01-11T10:35:50.573Z</time>
      </trkpt>
      <trkpt lat="43.57397" lon="3.31514">
        <ele>341.3</ele>
        <time>2016-01-11T10:35:51.633Z</time>
      </trkpt>
      <trkpt lat="43.57394" lon="3.31529">
        <ele>341.3</ele>
        <time>2016-01-11T10:35:55.008Z</time>
      </trkpt>
      <trkpt lat="43.57384" lon="3.31553">
        <ele>342.3</ele>
        <time>2016-01-11T10:36:00.658Z</time>
      </trkpt>
      <trkpt lat="43.57374" lon="3.31572">
        <ele>343.8</ele>
        <time>2016-01-11T10:36:05.227Z</time>
      </trkpt>
      <trkpt lat="43.57368" lon="3.31585">
        <ele>343.8</ele>
        <time>2016-01-11T10:36:08.360Z</time>
      </trkpt>
      <trkpt lat="43.57364" lon="3.31606">
        <ele>344</ele>
        <time>2016-01-11T10:36:12.571Z</time>
      </trkpt>
      <trkpt lat="43.57363" lon="3.31613">
        <ele>344</ele>
        <time>2016-01-11T10:36:14.069Z</time>
      </trkpt>
      <trkpt lat="43.57385" lon="3.31673">
        <ele>348.5</ele>
        <time>2016-01-11T10:36:22.317Z</time>
      </trkpt>
      <trkpt lat="43.57385" lon="3.31674">
        <ele>348.5</ele>
        <time>2016-01-11T10:36:22.466Z</time>
      </trkpt>
      <trkpt lat="43.57383" lon="3.31729">
        <ele>344.8</ele>
        <time>2016-01-11T10:36:29.069Z</time>
      </trkpt>
      <trkpt lat="43.57385" lon="3.31746">
        <ele>343.8</ele>
        <time>2016-01-11T10:36:31.163Z</time>
      </trkpt>
      <trkpt lat="43.57428" lon="3.31846">
        <ele>334.3</ele>
        <time>2016-01-11T10:36:45.468Z</time>
      </trkpt>
      <trkpt lat="43.5743" lon="3.31849">
        <ele>334</ele>
        <time>2016-01-11T10:36:45.770Z</time>
      </trkpt>
      <trkpt lat="43.57443" lon="3.31846">
        <ele>332.3</ele>
        <time>2016-01-11T10:36:47.381Z</time>
      </trkpt>
      <trkpt lat="43.57455" lon="3.31834">
        <ele>331.8</ele>
        <time>2016-01-11T10:36:49.278Z</time>
      </trkpt>
      <trkpt lat="43.57491" lon="3.31788">
        <ele>332.8</ele>
        <time>2016-01-11T10:36:55.317Z</time>
      </trkpt>
      <trkpt lat="43.57505" lon="3.31765">
        <ele>335</ele>
        <time>2016-01-11T10:36:57.986Z</time>
      </trkpt>
      <trkpt lat="43.57531" lon="3.31723">
        <ele>335</ele>
        <time>2016-01-11T10:37:02.907Z</time>
      </trkpt>
      <trkpt lat="43.57568" lon="3.31669">
        <ele>334</ele>
        <time>2016-01-11T10:37:09.453Z</time>
      </trkpt>
      <trkpt lat="43.57574" lon="3.31654">
        <ele>335.5</ele>
        <time>2016-01-11T10:37:10.946Z</time>
      </trkpt>
      <trkpt lat="43.57578" lon="3.31653">
        <ele>334.8</ele>
        <time>2016-01-11T10:37:11.507Z</time>
      </trkpt>
      <trkpt lat="43.5758" lon="3.31658">
        <ele>333.5</ele>
        <time>2016-01-11T10:37:11.971Z</time>
      </trkpt>
      <trkpt lat="43.57577" lon="3.31669">
        <ele>332</ele>
        <time>2016-01-11T10:37:12.998Z</time>
      </trkpt>
      <trkpt lat="43.57567" lon="3.31689">
        <ele>332</ele>
        <time>2016-01-11T10:37:15.440Z</time>
      </trkpt>
      <trkpt lat="43.57553" lon="3.31723">
        <ele>330.8</ele>
        <time>2016-01-11T10:37:19.438Z</time>
      </trkpt>
      <trkpt lat="43.57537" lon="3.31781">
        <ele>327</ele>
        <time>2016-01-11T10:37:25.659Z</time>
      </trkpt>
      <trkpt lat="43.5753" lon="3.31814">
        <ele>321</ele>
        <time>2016-01-11T10:37:29.172Z</time>
      </trkpt>
      <trkpt lat="43.57522" lon="3.31852">
        <ele>321</ele>
        <time>2016-01-11T10:37:33.156Z</time>
      </trkpt>
      <trkpt lat="43.5751" lon="3.31924">
        <ele>312.5</ele>
        <time>2016-01-11T10:37:40.612Z</time>
      </trkpt>
      <trkpt lat="43.57507" lon="3.31943">
        <ele>312.5</ele>
        <time>2016-01-11T10:37:42.523Z</time>
      </trkpt>
      <trkpt lat="43.57504" lon="3.31975">
        <ele>310</ele>
        <time>2016-01-11T10:37:44.615Z</time>
      </trkpt>
      <trkpt lat="43.57507" lon="3.32003">
        <ele>307.5</ele>
        <time>2016-01-11T10:37:46.487Z</time>
      </trkpt>
      <trkpt lat="43.57518" lon="3.32064">
        <ele>303.5</ele>
        <time>2016-01-11T10:37:50.586Z</time>
      </trkpt>
      <trkpt lat="43.57521" lon="3.32098">
        <ele>300.5</ele>
        <time>2016-01-11T10:37:52.822Z</time>
      </trkpt>
      <trkpt lat="43.57522" lon="3.32112">
        <ele>298.3</ele>
        <time>2016-01-11T10:37:53.697Z</time>
      </trkpt>
      <trkpt lat="43.57523" lon="3.32117">
        <ele>298.3</ele>
        <time>2016-01-11T10:37:54.072Z</time>
      </trkpt>
      <trkpt lat="43.57524" lon="3.32129">
        <ele>297</ele>
        <time>2016-01-11T10:37:54.855Z</time>
      </trkpt>
      <trkpt lat="43.57531" lon="3.32144">
        <ele>294.8</ele>
        <time>2016-01-11T10:37:55.979Z</time>
      </trkpt>
      <trkpt lat="43.57533" lon="3.32159">
        <ele>292.8</ele>
        <time>2016-01-11T10:37:56.998Z</time>
      </trkpt>
      <trkpt lat="43.57534" lon="3.32167">
        <ele>290</ele>
        <time>2016-01-11T10:37:57.481Z</time>
      </trkpt>
      <trkpt lat="43.57534" lon="3.32176">
        <ele>290</ele>
        <time>2016-01-11T10:37:58.056Z</time>
      </trkpt>
      <trkpt lat="43.57531" lon="3.32185">
        <ele>288.3</ele>
        <time>2016-01-11T10:37:59.200Z</time>
      </trkpt>
      <trkpt lat="43.57527" lon="3.3219">
        <ele>288</ele>
        <time>2016-01-11T10:38:00.063Z</time>
      </trkpt>
      <trkpt lat="43.57519" lon="3.32196">
        <ele>287.8</ele>
        <time>2016-01-11T10:38:01.419Z</time>
      </trkpt>
      <trkpt lat="43.57517" lon="3.32206">
        <ele>286</ele>
        <time>2016-01-11T10:38:02.572Z</time>
      </trkpt>
      <trkpt lat="43.57514" lon="3.32215">
        <ele>284.5</ele>
        <time>2016-01-11T10:38:04.190Z</time>
      </trkpt>
      <trkpt lat="43.57496" lon="3.32229">
        <ele>284.8</ele>
        <time>2016-01-11T10:38:08.548Z</time>
      </trkpt>
      <trkpt lat="43.57467" lon="3.32238">
        <ele>287.8</ele>
        <time>2016-01-11T10:38:14.663Z</time>
      </trkpt>
      <trkpt lat="43.57486" lon="3.32232">
        <ele>284.8</ele>
        <time>2016-01-11T10:38:18.641Z</time>
      </trkpt>
      <trkpt lat="43.57496" lon="3.32229">
        <ele>284.8</ele>
        <time>2016-01-11T10:38:20.777Z</time>
      </trkpt>
      <trkpt lat="43.57514" lon="3.32215">
        <ele>284.5</ele>
        <time>2016-01-11T10:38:24.418Z</time>
      </trkpt>
      <trkpt lat="43.57543" lon="3.32185">
        <ele>286.8</ele>
        <time>2016-01-11T10:38:30.824Z</time>
      </trkpt>
      <trkpt lat="43.57549" lon="3.32173">
        <ele>289.8</ele>
        <time>2016-01-11T10:38:32.643Z</time>
      </trkpt>
      <trkpt lat="43.57553" lon="3.32165">
        <ele>289.8</ele>
        <time>2016-01-11T10:38:33.879Z</time>
      </trkpt>
      <trkpt lat="43.5756" lon="3.32154">
        <ele>290.3</ele>
        <time>2016-01-11T10:38:35.652Z</time>
      </trkpt>
      <trkpt lat="43.57567" lon="3.32155">
        <ele>289.3</ele>
        <time>2016-01-11T10:38:36.928Z</time>
      </trkpt>
      <trkpt lat="43.57572" lon="3.32166">
        <ele>287.3</ele>
        <time>2016-01-11T10:38:39.473Z</time>
      </trkpt>
      <trkpt lat="43.57579" lon="3.32183">
        <ele>282.8</ele>
        <time>2016-01-11T10:38:43.338Z</time>
      </trkpt>
      <trkpt lat="43.57588" lon="3.32192">
        <ele>279.5</ele>
        <time>2016-01-11T10:38:46.352Z</time>
      </trkpt>
      <trkpt lat="43.57595" lon="3.32192">
        <ele>278.5</ele>
        <time>2016-01-11T10:38:48.216Z</time>
      </trkpt>
      <trkpt lat="43.57597" lon="3.32191">
        <ele>277.3</ele>
        <time>2016-01-11T10:38:49.014Z</time>
      </trkpt>
      <trkpt lat="43.57611" lon="3.32186">
        <ele>277.3</ele>
        <time>2016-01-11T10:38:52.893Z</time>
      </trkpt>
      <trkpt lat="43.5764" lon="3.32166">
        <ele>275.5</ele>
        <time>2016-01-11T10:38:59.306Z</time>
      </trkpt>
      <trkpt lat="43.57658" lon="3.32153">
        <ele>275.5</ele>
        <time>2016-01-11T10:39:03.319Z</time>
      </trkpt>
      <trkpt lat="43.57703" lon="3.32134">
        <ele>274.3</ele>
        <time>2016-01-11T10:39:12.508Z</time>
      </trkpt>
      <trkpt lat="43.57706" lon="3.32132">
        <ele>274.3</ele>
        <time>2016-01-11T10:39:13.231Z</time>
      </trkpt>
      <trkpt lat="43.57724" lon="3.32118">
        <ele>274</ele>
        <time>2016-01-11T10:39:18.436Z</time>
      </trkpt>
      <trkpt lat="43.57725" lon="3.32117">
        <ele>274</ele>
        <time>2016-01-11T10:39:18.743Z</time>
      </trkpt>
      <trkpt lat="43.57732" lon="3.32109">
        <ele>274</ele>
        <time>2016-01-11T10:39:20.789Z</time>
      </trkpt>
      <trkpt lat="43.57733" lon="3.32109">
        <ele>272</ele>
        <time>2016-01-11T10:39:21.213Z</time>
      </trkpt>
      <trkpt lat="43.57746" lon="3.32107">
        <ele>272</ele>
        <time>2016-01-11T10:39:24.452Z</time>
      </trkpt>
      <trkpt lat="43.57731" lon="3.3213">
        <ele>271.5</ele>
        <time>2016-01-11T10:39:30.119Z</time>
      </trkpt>
      <trkpt lat="43.57716" lon="3.32146">
        <ele>270.8</ele>
        <time>2016-01-11T10:39:34.703Z</time>
      </trkpt>
      <trkpt lat="43.57708" lon="3.32152">
        <ele>270.5</ele>
        <time>2016-01-11T10:39:36.857Z</time>
      </trkpt>
      <trkpt lat="43.57687" lon="3.32181">
        <ele>268.5</ele>
        <time>2016-01-11T10:39:44.464Z</time>
      </trkpt>
      <trkpt lat="43.57683" lon="3.32187">
        <ele>268.5</ele>
        <time>2016-01-11T10:39:45.874Z</time>
      </trkpt>
      <trkpt lat="43.5769" lon="3.32201">
        <ele>267.8</ele>
        <time>2016-01-11T10:39:49.005Z</time>
      </trkpt>
      <trkpt lat="43.57693" lon="3.32209">
        <ele>267.5</ele>
        <time>2016-01-11T10:39:50.559Z</time>
      </trkpt>
      <trkpt lat="43.57693" lon="3.32216">
        <ele>267.3</ele>
        <time>2016-01-11T10:39:51.765Z</time>
      </trkpt>
      <trkpt lat="43.57691" lon="3.32222">
        <ele>267</ele>
        <time>2016-01-11T10:39:52.815Z</time>
      </trkpt>
      <trkpt lat="43.57687" lon="3.3223">
        <ele>263.8</ele>
        <time>2016-01-11T10:39:54.768Z</time>
      </trkpt>
    </trkseg>
  </trk>
</gpx>